<?xml version="1.0" encoding="UTF-8" standalone="no" ?>
<gpx xmlns="http://www.topografix.com/GPX/1/1" xmlns:xsi="http://www.w3.org/2001/XMLSchema-instance" xsi:schemaLocation="http://www.topografix.com/GPX/1/1 http://www.topografix.com/GPX/1/1/gpx.xsd" version="1.1" creator="VisuGPX - https://www.visugpx.com">
  <metadata>
    <name>Tour du lac de Bonlieu   boucle forêt</name>
    <desc><![CDATA[Superbe parcours, très facile, assez plat. Vues magnifiques.
Départ du centre équestre de Bonlieu.
Ne pas tenir compte du temps médiocre (grosse douleur du ménisque gauche oblige ...).
Vendredi 19 Août 2011.
Denis Gindre]]></desc>
  </metadata>
  <trk>
    <name><![CDATA[TrLacBonlieu10]]></name>
    <trkseg>
      <trkpt lat="46.59815" lon="5.86375">
        <ele>787.9377441</ele>
        <time>2011-08-19T08:10:03Z</time>
      </trkpt>
      <trkpt lat="46.59814" lon="5.86376">
        <ele>787.9377441</ele>
        <time>2011-08-19T08:10:04Z</time>
      </trkpt>
      <trkpt lat="46.59809" lon="5.86378">
        <ele>787.9377441</ele>
        <time>2011-08-19T08:10:07Z</time>
      </trkpt>
      <trkpt lat="46.598" lon="5.86381">
        <ele>788.418457</ele>
        <time>2011-08-19T08:10:11Z</time>
      </trkpt>
      <trkpt lat="46.59784" lon="5.86388">
        <ele>788.8991699</ele>
        <time>2011-08-19T08:10:17Z</time>
      </trkpt>
      <trkpt lat="46.59771" lon="5.86392">
        <ele>789.3796387</ele>
        <time>2011-08-19T08:10:22Z</time>
      </trkpt>
      <trkpt lat="46.5976" lon="5.86397">
        <ele>788.8991699</ele>
        <time>2011-08-19T08:10:26Z</time>
      </trkpt>
      <trkpt lat="46.59747" lon="5.864">
        <ele>787.9377441</ele>
        <time>2011-08-19T08:10:31Z</time>
      </trkpt>
      <trkpt lat="46.5973" lon="5.86405">
        <ele>786.9763184</ele>
        <time>2011-08-19T08:10:38Z</time>
      </trkpt>
      <trkpt lat="46.59717" lon="5.86409">
        <ele>786.9763184</ele>
        <time>2011-08-19T08:10:43Z</time>
      </trkpt>
      <trkpt lat="46.59707" lon="5.86413">
        <ele>788.8991699</ele>
        <time>2011-08-19T08:10:48Z</time>
      </trkpt>
      <trkpt lat="46.59701" lon="5.86416">
        <ele>788.8991699</ele>
        <time>2011-08-19T08:10:51Z</time>
      </trkpt>
      <trkpt lat="46.5969" lon="5.86426">
        <ele>790.8215332</ele>
        <time>2011-08-19T08:10:57Z</time>
      </trkpt>
      <trkpt lat="46.59684" lon="5.86437">
        <ele>789.8603516</ele>
        <time>2011-08-19T08:11:02Z</time>
      </trkpt>
      <trkpt lat="46.5968" lon="5.86448">
        <ele>789.3796387</ele>
        <time>2011-08-19T08:11:05Z</time>
      </trkpt>
      <trkpt lat="46.59677" lon="5.86472">
        <ele>792.2636719</ele>
        <time>2011-08-19T08:11:11Z</time>
      </trkpt>
      <trkpt lat="46.59676" lon="5.86475">
        <ele>792.7443848</ele>
        <time>2011-08-19T08:11:12Z</time>
      </trkpt>
      <trkpt lat="46.59674" lon="5.86494">
        <ele>796.1091309</ele>
        <time>2011-08-19T08:11:17Z</time>
      </trkpt>
      <trkpt lat="46.59672" lon="5.86512">
        <ele>796.5898438</ele>
        <time>2011-08-19T08:11:22Z</time>
      </trkpt>
      <trkpt lat="46.5967" lon="5.86523">
        <ele>796.1091309</ele>
        <time>2011-08-19T08:11:25Z</time>
      </trkpt>
      <trkpt lat="46.59667" lon="5.8654">
        <ele>795.6281738</ele>
        <time>2011-08-19T08:11:30Z</time>
      </trkpt>
      <trkpt lat="46.59662" lon="5.86554">
        <ele>794.1862793</ele>
        <time>2011-08-19T08:11:35Z</time>
      </trkpt>
      <trkpt lat="46.59656" lon="5.86575">
        <ele>792.7443848</ele>
        <time>2011-08-19T08:11:42Z</time>
      </trkpt>
      <trkpt lat="46.59651" lon="5.86592">
        <ele>793.2248535</ele>
        <time>2011-08-19T08:11:48Z</time>
      </trkpt>
      <trkpt lat="46.59645" lon="5.86609">
        <ele>791.782959</ele>
        <time>2011-08-19T08:11:54Z</time>
      </trkpt>
      <trkpt lat="46.59644" lon="5.86622">
        <ele>792.2636719</ele>
        <time>2011-08-19T08:11:58Z</time>
      </trkpt>
      <trkpt lat="46.5964" lon="5.86641">
        <ele>793.2248535</ele>
        <time>2011-08-19T08:12:04Z</time>
      </trkpt>
      <trkpt lat="46.59637" lon="5.86657">
        <ele>795.6281738</ele>
        <time>2011-08-19T08:12:09Z</time>
      </trkpt>
      <trkpt lat="46.59633" lon="5.86677">
        <ele>798.9929199</ele>
        <time>2011-08-19T08:12:15Z</time>
      </trkpt>
      <trkpt lat="46.59627" lon="5.86694">
        <ele>799.9543457</ele>
        <time>2011-08-19T08:12:21Z</time>
      </trkpt>
      <trkpt lat="46.59619" lon="5.86706">
        <ele>799.9543457</ele>
        <time>2011-08-19T08:12:26Z</time>
      </trkpt>
      <trkpt lat="46.59607" lon="5.8671">
        <ele>799.9543457</ele>
        <time>2011-08-19T08:12:32Z</time>
      </trkpt>
      <trkpt lat="46.59597" lon="5.86702">
        <ele>798.512207</ele>
        <time>2011-08-19T08:12:37Z</time>
      </trkpt>
      <trkpt lat="46.59588" lon="5.86686">
        <ele>798.512207</ele>
        <time>2011-08-19T08:12:43Z</time>
      </trkpt>
      <trkpt lat="46.59581" lon="5.86675">
        <ele>798.9929199</ele>
        <time>2011-08-19T08:12:48Z</time>
      </trkpt>
      <trkpt lat="46.59572" lon="5.86661">
        <ele>800.9155273</ele>
        <time>2011-08-19T08:12:54Z</time>
      </trkpt>
      <trkpt lat="46.5956" lon="5.86646">
        <ele>801.8769531</ele>
        <time>2011-08-19T08:13:01Z</time>
      </trkpt>
      <trkpt lat="46.5955" lon="5.86634">
        <ele>801.8769531</ele>
        <time>2011-08-19T08:13:07Z</time>
      </trkpt>
      <trkpt lat="46.59542" lon="5.86624">
        <ele>803.3188477</ele>
        <time>2011-08-19T08:13:12Z</time>
      </trkpt>
      <trkpt lat="46.59534" lon="5.86618">
        <ele>802.3574219</ele>
        <time>2011-08-19T08:13:17Z</time>
      </trkpt>
      <trkpt lat="46.59533" lon="5.86619">
        <ele>802.3574219</ele>
        <time>2011-08-19T08:13:18Z</time>
      </trkpt>
      <trkpt lat="46.59531" lon="5.86621">
        <ele>801.8769531</ele>
        <time>2011-08-19T08:13:22Z</time>
      </trkpt>
      <trkpt lat="46.59535" lon="5.86621">
        <ele>800.4350586</ele>
        <time>2011-08-19T08:13:29Z</time>
      </trkpt>
      <trkpt lat="46.59536" lon="5.86622">
        <ele>800.4350586</ele>
        <time>2011-08-19T08:13:30Z</time>
      </trkpt>
      <trkpt lat="46.59539" lon="5.86628">
        <ele>801.3962402</ele>
        <time>2011-08-19T08:13:36Z</time>
      </trkpt>
      <trkpt lat="46.59538" lon="5.86627">
        <ele>800.9155273</ele>
        <time>2011-08-19T08:13:37Z</time>
      </trkpt>
      <trkpt lat="46.59529" lon="5.86619">
        <ele>799.4736328</ele>
        <time>2011-08-19T08:13:44Z</time>
      </trkpt>
      <trkpt lat="46.59523" lon="5.86613">
        <ele>798.9929199</ele>
        <time>2011-08-19T08:13:50Z</time>
      </trkpt>
      <trkpt lat="46.59522" lon="5.86612">
        <ele>798.512207</ele>
        <time>2011-08-19T08:13:51Z</time>
      </trkpt>
      <trkpt lat="46.59519" lon="5.86609">
        <ele>798.512207</ele>
        <time>2011-08-19T08:13:53Z</time>
      </trkpt>
      <trkpt lat="46.59511" lon="5.86597">
        <ele>800.9155273</ele>
        <time>2011-08-19T08:13:58Z</time>
      </trkpt>
      <trkpt lat="46.59502" lon="5.86587">
        <ele>803.3188477</ele>
        <time>2011-08-19T08:14:03Z</time>
      </trkpt>
      <trkpt lat="46.59496" lon="5.86579">
        <ele>804.2802734</ele>
        <time>2011-08-19T08:14:07Z</time>
      </trkpt>
      <trkpt lat="46.5949" lon="5.86568">
        <ele>805.2414551</ele>
        <time>2011-08-19T08:14:14Z</time>
      </trkpt>
      <trkpt lat="46.5948" lon="5.86552">
        <ele>807.1640625</ele>
        <time>2011-08-19T08:14:25Z</time>
      </trkpt>
      <trkpt lat="46.59478" lon="5.86548">
        <ele>807.1640625</ele>
        <time>2011-08-19T08:14:28Z</time>
      </trkpt>
      <trkpt lat="46.59478" lon="5.86545">
        <ele>806.6833496</ele>
        <time>2011-08-19T08:14:34Z</time>
      </trkpt>
      <trkpt lat="46.59476" lon="5.86542">
        <ele>806.2026367</ele>
        <time>2011-08-19T08:14:37Z</time>
      </trkpt>
      <trkpt lat="46.59471" lon="5.86533">
        <ele>805.722168</ele>
        <time>2011-08-19T08:14:43Z</time>
      </trkpt>
      <trkpt lat="46.59464" lon="5.86522">
        <ele>808.1254883</ele>
        <time>2011-08-19T08:14:48Z</time>
      </trkpt>
      <trkpt lat="46.59461" lon="5.86519">
        <ele>809.0866699</ele>
        <time>2011-08-19T08:14:50Z</time>
      </trkpt>
      <trkpt lat="46.5945" lon="5.86511">
        <ele>814.3740234</ele>
        <time>2011-08-19T08:14:56Z</time>
      </trkpt>
      <trkpt lat="46.59448" lon="5.8651">
        <ele>815.3354492</ele>
        <time>2011-08-19T08:14:57Z</time>
      </trkpt>
      <trkpt lat="46.59441" lon="5.86508">
        <ele>821.5837402</ele>
        <time>2011-08-19T08:15:01Z</time>
      </trkpt>
      <trkpt lat="46.59434" lon="5.86503">
        <ele>827.3518066</ele>
        <time>2011-08-19T08:15:05Z</time>
      </trkpt>
      <trkpt lat="46.59426" lon="5.86499">
        <ele>830.7165527</ele>
        <time>2011-08-19T08:15:09Z</time>
      </trkpt>
      <trkpt lat="46.59412" lon="5.86488">
        <ele>834.0810547</ele>
        <time>2011-08-19T08:15:16Z</time>
      </trkpt>
      <trkpt lat="46.59401" lon="5.86478">
        <ele>832.1584473</ele>
        <time>2011-08-19T08:15:21Z</time>
      </trkpt>
      <trkpt lat="46.59388" lon="5.86464">
        <ele>823.5065918</ele>
        <time>2011-08-19T08:15:27Z</time>
      </trkpt>
      <trkpt lat="46.59379" lon="5.86455">
        <ele>820.1418457</ele>
        <time>2011-08-19T08:15:31Z</time>
      </trkpt>
      <trkpt lat="46.59365" lon="5.86448">
        <ele>818.2192383</ele>
        <time>2011-08-19T08:15:37Z</time>
      </trkpt>
      <trkpt lat="46.59352" lon="5.86444">
        <ele>819.1806641</ele>
        <time>2011-08-19T08:15:43Z</time>
      </trkpt>
      <trkpt lat="46.5934" lon="5.86442">
        <ele>819.661377</ele>
        <time>2011-08-19T08:15:48Z</time>
      </trkpt>
      <trkpt lat="46.59329" lon="5.86439">
        <ele>817.2580566</ele>
        <time>2011-08-19T08:15:53Z</time>
      </trkpt>
      <trkpt lat="46.59315" lon="5.86437">
        <ele>815.8161621</ele>
        <time>2011-08-19T08:15:58Z</time>
      </trkpt>
      <trkpt lat="46.59298" lon="5.86434">
        <ele>815.3354492</ele>
        <time>2011-08-19T08:16:05Z</time>
      </trkpt>
      <trkpt lat="46.59284" lon="5.86432">
        <ele>816.2966309</ele>
        <time>2011-08-19T08:16:10Z</time>
      </trkpt>
      <trkpt lat="46.59274" lon="5.86427">
        <ele>815.3354492</ele>
        <time>2011-08-19T08:16:14Z</time>
      </trkpt>
      <trkpt lat="46.59264" lon="5.86418">
        <ele>813.4128418</ele>
        <time>2011-08-19T08:16:19Z</time>
      </trkpt>
      <trkpt lat="46.59255" lon="5.86411">
        <ele>812.9321289</ele>
        <time>2011-08-19T08:16:23Z</time>
      </trkpt>
      <trkpt lat="46.59245" lon="5.864">
        <ele>812.451416</ele>
        <time>2011-08-19T08:16:28Z</time>
      </trkpt>
      <trkpt lat="46.59237" lon="5.86391">
        <ele>812.451416</ele>
        <time>2011-08-19T08:16:33Z</time>
      </trkpt>
      <trkpt lat="46.59224" lon="5.86382">
        <ele>811.0092773</ele>
        <time>2011-08-19T08:16:38Z</time>
      </trkpt>
      <trkpt lat="46.59215" lon="5.86376">
        <ele>810.5285645</ele>
        <time>2011-08-19T08:16:43Z</time>
      </trkpt>
      <trkpt lat="46.59204" lon="5.86372">
        <ele>809.5673828</ele>
        <time>2011-08-19T08:16:47Z</time>
      </trkpt>
      <trkpt lat="46.59195" lon="5.86366">
        <ele>808.1254883</ele>
        <time>2011-08-19T08:16:52Z</time>
      </trkpt>
      <trkpt lat="46.59183" lon="5.86356">
        <ele>805.722168</ele>
        <time>2011-08-19T08:16:58Z</time>
      </trkpt>
      <trkpt lat="46.5917" lon="5.86345">
        <ele>803.7995605</ele>
        <time>2011-08-19T08:17:04Z</time>
      </trkpt>
      <trkpt lat="46.59168" lon="5.86342">
        <ele>803.7995605</ele>
        <time>2011-08-19T08:17:05Z</time>
      </trkpt>
      <trkpt lat="46.59156" lon="5.86329">
        <ele>803.7995605</ele>
        <time>2011-08-19T08:17:11Z</time>
      </trkpt>
      <trkpt lat="46.59151" lon="5.86324">
        <ele>805.722168</ele>
        <time>2011-08-19T08:17:14Z</time>
      </trkpt>
      <trkpt lat="46.59138" lon="5.86311">
        <ele>805.2414551</ele>
        <time>2011-08-19T08:17:21Z</time>
      </trkpt>
      <trkpt lat="46.59128" lon="5.863">
        <ele>805.722168</ele>
        <time>2011-08-19T08:17:26Z</time>
      </trkpt>
      <trkpt lat="46.59117" lon="5.86287">
        <ele>807.6447754</ele>
        <time>2011-08-19T08:17:31Z</time>
      </trkpt>
      <trkpt lat="46.59106" lon="5.8628">
        <ele>809.5673828</ele>
        <time>2011-08-19T08:17:35Z</time>
      </trkpt>
      <trkpt lat="46.59096" lon="5.86272">
        <ele>810.0478516</ele>
        <time>2011-08-19T08:17:39Z</time>
      </trkpt>
      <trkpt lat="46.59085" lon="5.86266">
        <ele>810.5285645</ele>
        <time>2011-08-19T08:17:43Z</time>
      </trkpt>
      <trkpt lat="46.59073" lon="5.86262">
        <ele>811.4899902</ele>
        <time>2011-08-19T08:17:48Z</time>
      </trkpt>
      <trkpt lat="46.59071" lon="5.86261">
        <ele>811.4899902</ele>
        <time>2011-08-19T08:17:49Z</time>
      </trkpt>
      <trkpt lat="46.59058" lon="5.86254">
        <ele>811.0092773</ele>
        <time>2011-08-19T08:17:55Z</time>
      </trkpt>
      <trkpt lat="46.59044" lon="5.86246">
        <ele>808.605957</ele>
        <time>2011-08-19T08:18:01Z</time>
      </trkpt>
      <trkpt lat="46.59033" lon="5.86241">
        <ele>807.1640625</ele>
        <time>2011-08-19T08:18:05Z</time>
      </trkpt>
      <trkpt lat="46.59027" lon="5.86239">
        <ele>805.722168</ele>
        <time>2011-08-19T08:18:08Z</time>
      </trkpt>
      <trkpt lat="46.59018" lon="5.86239">
        <ele>805.2414551</ele>
        <time>2011-08-19T08:18:13Z</time>
      </trkpt>
      <trkpt lat="46.59011" lon="5.86241">
        <ele>804.7607422</ele>
        <time>2011-08-19T08:18:16Z</time>
      </trkpt>
      <trkpt lat="46.59004" lon="5.86243">
        <ele>804.2802734</ele>
        <time>2011-08-19T08:18:19Z</time>
      </trkpt>
      <trkpt lat="46.5899" lon="5.86253">
        <ele>802.3574219</ele>
        <time>2011-08-19T08:18:25Z</time>
      </trkpt>
      <trkpt lat="46.58979" lon="5.86263">
        <ele>805.2414551</ele>
        <time>2011-08-19T08:18:30Z</time>
      </trkpt>
      <trkpt lat="46.58971" lon="5.86269">
        <ele>804.2802734</ele>
        <time>2011-08-19T08:18:34Z</time>
      </trkpt>
      <trkpt lat="46.58966" lon="5.86272">
        <ele>803.7995605</ele>
        <time>2011-08-19T08:18:37Z</time>
      </trkpt>
      <trkpt lat="46.5895" lon="5.86278">
        <ele>802.8381348</ele>
        <time>2011-08-19T08:18:43Z</time>
      </trkpt>
      <trkpt lat="46.58944" lon="5.86281">
        <ele>802.3574219</ele>
        <time>2011-08-19T08:18:45Z</time>
      </trkpt>
      <trkpt lat="46.58928" lon="5.86286">
        <ele>801.8769531</ele>
        <time>2011-08-19T08:18:51Z</time>
      </trkpt>
      <trkpt lat="46.58911" lon="5.86286">
        <ele>796.1091309</ele>
        <time>2011-08-19T08:18:59Z</time>
      </trkpt>
      <trkpt lat="46.58898" lon="5.86288">
        <ele>795.1474609</ele>
        <time>2011-08-19T08:19:04Z</time>
      </trkpt>
      <trkpt lat="46.58881" lon="5.86287">
        <ele>794.1862793</ele>
        <time>2011-08-19T08:19:09Z</time>
      </trkpt>
      <trkpt lat="46.58868" lon="5.86283">
        <ele>792.2636719</ele>
        <time>2011-08-19T08:19:13Z</time>
      </trkpt>
      <trkpt lat="46.58852" lon="5.86284">
        <ele>792.2636719</ele>
        <time>2011-08-19T08:19:19Z</time>
      </trkpt>
      <trkpt lat="46.58842" lon="5.86279">
        <ele>792.2636719</ele>
        <time>2011-08-19T08:19:23Z</time>
      </trkpt>
      <trkpt lat="46.58831" lon="5.86273">
        <ele>793.2248535</ele>
        <time>2011-08-19T08:19:27Z</time>
      </trkpt>
      <trkpt lat="46.58822" lon="5.86268">
        <ele>791.3022461</ele>
        <time>2011-08-19T08:19:31Z</time>
      </trkpt>
      <trkpt lat="46.58808" lon="5.86264">
        <ele>793.7055664</ele>
        <time>2011-08-19T08:19:36Z</time>
      </trkpt>
      <trkpt lat="46.588" lon="5.86259">
        <ele>796.1091309</ele>
        <time>2011-08-19T08:19:40Z</time>
      </trkpt>
      <trkpt lat="46.58789" lon="5.86256">
        <ele>797.5510254</ele>
        <time>2011-08-19T08:19:44Z</time>
      </trkpt>
      <trkpt lat="46.58775" lon="5.86249">
        <ele>796.1091309</ele>
        <time>2011-08-19T08:19:49Z</time>
      </trkpt>
      <trkpt lat="46.58761" lon="5.86241">
        <ele>794.666748</ele>
        <time>2011-08-19T08:19:54Z</time>
      </trkpt>
      <trkpt lat="46.58752" lon="5.86235">
        <ele>794.666748</ele>
        <time>2011-08-19T08:19:58Z</time>
      </trkpt>
      <trkpt lat="46.5874" lon="5.86227">
        <ele>795.1474609</ele>
        <time>2011-08-19T08:20:03Z</time>
      </trkpt>
      <trkpt lat="46.5873" lon="5.86222">
        <ele>795.6281738</ele>
        <time>2011-08-19T08:20:07Z</time>
      </trkpt>
      <trkpt lat="46.58719" lon="5.86215">
        <ele>795.6281738</ele>
        <time>2011-08-19T08:20:12Z</time>
      </trkpt>
      <trkpt lat="46.58703" lon="5.86205">
        <ele>797.0703125</ele>
        <time>2011-08-19T08:20:18Z</time>
      </trkpt>
      <trkpt lat="46.58691" lon="5.86197">
        <ele>798.9929199</ele>
        <time>2011-08-19T08:20:24Z</time>
      </trkpt>
      <trkpt lat="46.58682" lon="5.86191">
        <ele>799.4736328</ele>
        <time>2011-08-19T08:20:28Z</time>
      </trkpt>
      <trkpt lat="46.58678" lon="5.86189">
        <ele>799.4736328</ele>
        <time>2011-08-19T08:20:30Z</time>
      </trkpt>
      <trkpt lat="46.58667" lon="5.86175">
        <ele>800.4350586</ele>
        <time>2011-08-19T08:20:36Z</time>
      </trkpt>
      <trkpt lat="46.58659" lon="5.86156">
        <ele>799.4736328</ele>
        <time>2011-08-19T08:20:42Z</time>
      </trkpt>
      <trkpt lat="46.58647" lon="5.86135">
        <ele>798.9929199</ele>
        <time>2011-08-19T08:20:49Z</time>
      </trkpt>
      <trkpt lat="46.58643" lon="5.86125">
        <ele>797.0703125</ele>
        <time>2011-08-19T08:20:53Z</time>
      </trkpt>
      <trkpt lat="46.58636" lon="5.86114">
        <ele>795.1474609</ele>
        <time>2011-08-19T08:20:58Z</time>
      </trkpt>
      <trkpt lat="46.58627" lon="5.86108">
        <ele>794.666748</ele>
        <time>2011-08-19T08:21:03Z</time>
      </trkpt>
      <trkpt lat="46.58615" lon="5.86106">
        <ele>794.1862793</ele>
        <time>2011-08-19T08:21:08Z</time>
      </trkpt>
      <trkpt lat="46.586" lon="5.86104">
        <ele>793.2248535</ele>
        <time>2011-08-19T08:21:14Z</time>
      </trkpt>
      <trkpt lat="46.5859" lon="5.86102">
        <ele>792.7443848</ele>
        <time>2011-08-19T08:21:18Z</time>
      </trkpt>
      <trkpt lat="46.58585" lon="5.861">
        <ele>792.7443848</ele>
        <time>2011-08-19T08:21:21Z</time>
      </trkpt>
      <trkpt lat="46.58573" lon="5.86092">
        <ele>792.7443848</ele>
        <time>2011-08-19T08:21:26Z</time>
      </trkpt>
      <trkpt lat="46.58562" lon="5.86085">
        <ele>791.782959</ele>
        <time>2011-08-19T08:21:30Z</time>
      </trkpt>
      <trkpt lat="46.5855" lon="5.86077">
        <ele>791.782959</ele>
        <time>2011-08-19T08:21:36Z</time>
      </trkpt>
      <trkpt lat="46.5854" lon="5.86071">
        <ele>792.2636719</ele>
        <time>2011-08-19T08:21:41Z</time>
      </trkpt>
      <trkpt lat="46.58529" lon="5.86068">
        <ele>792.7443848</ele>
        <time>2011-08-19T08:21:45Z</time>
      </trkpt>
      <trkpt lat="46.58518" lon="5.86064">
        <ele>792.2636719</ele>
        <time>2011-08-19T08:21:49Z</time>
      </trkpt>
      <trkpt lat="46.58505" lon="5.86062">
        <ele>794.1862793</ele>
        <time>2011-08-19T08:21:54Z</time>
      </trkpt>
      <trkpt lat="46.58494" lon="5.86061">
        <ele>796.5898438</ele>
        <time>2011-08-19T08:21:59Z</time>
      </trkpt>
      <trkpt lat="46.58483" lon="5.86061">
        <ele>796.5898438</ele>
        <time>2011-08-19T08:22:04Z</time>
      </trkpt>
      <trkpt lat="46.58481" lon="5.86061">
        <ele>797.5510254</ele>
        <time>2011-08-19T08:22:05Z</time>
      </trkpt>
      <trkpt lat="46.58468" lon="5.86062">
        <ele>799.4736328</ele>
        <time>2011-08-19T08:22:11Z</time>
      </trkpt>
      <trkpt lat="46.58454" lon="5.86064">
        <ele>802.3574219</ele>
        <time>2011-08-19T08:22:17Z</time>
      </trkpt>
      <trkpt lat="46.58442" lon="5.86064">
        <ele>799.4736328</ele>
        <time>2011-08-19T08:22:22Z</time>
      </trkpt>
      <trkpt lat="46.58432" lon="5.86061">
        <ele>798.512207</ele>
        <time>2011-08-19T08:22:26Z</time>
      </trkpt>
      <trkpt lat="46.58427" lon="5.8606">
        <ele>797.5510254</ele>
        <time>2011-08-19T08:22:28Z</time>
      </trkpt>
      <trkpt lat="46.58422" lon="5.86056">
        <ele>789.3796387</ele>
        <time>2011-08-19T08:22:38Z</time>
      </trkpt>
      <trkpt lat="46.5842" lon="5.86056">
        <ele>789.8603516</ele>
        <time>2011-08-19T08:22:40Z</time>
      </trkpt>
      <trkpt lat="46.58412" lon="5.86053">
        <ele>791.3022461</ele>
        <time>2011-08-19T08:22:44Z</time>
      </trkpt>
      <trkpt lat="46.58409" lon="5.86053">
        <ele>791.782959</ele>
        <time>2011-08-19T08:22:46Z</time>
      </trkpt>
      <trkpt lat="46.58398" lon="5.86055">
        <ele>793.2248535</ele>
        <time>2011-08-19T08:22:51Z</time>
      </trkpt>
      <trkpt lat="46.58391" lon="5.86056">
        <ele>797.0703125</ele>
        <time>2011-08-19T08:22:54Z</time>
      </trkpt>
      <trkpt lat="46.58386" lon="5.86059">
        <ele>798.9929199</ele>
        <time>2011-08-19T08:22:58Z</time>
      </trkpt>
      <trkpt lat="46.5838" lon="5.86061">
        <ele>799.9543457</ele>
        <time>2011-08-19T08:23:01Z</time>
      </trkpt>
      <trkpt lat="46.58369" lon="5.86068">
        <ele>802.3574219</ele>
        <time>2011-08-19T08:23:07Z</time>
      </trkpt>
      <trkpt lat="46.58368" lon="5.86068">
        <ele>802.8381348</ele>
        <time>2011-08-19T08:23:08Z</time>
      </trkpt>
      <trkpt lat="46.58355" lon="5.86075">
        <ele>809.5673828</ele>
        <time>2011-08-19T08:23:15Z</time>
      </trkpt>
      <trkpt lat="46.58344" lon="5.86071">
        <ele>809.0866699</ele>
        <time>2011-08-19T08:23:20Z</time>
      </trkpt>
      <trkpt lat="46.58338" lon="5.86063">
        <ele>806.2026367</ele>
        <time>2011-08-19T08:23:24Z</time>
      </trkpt>
      <trkpt lat="46.58331" lon="5.86054">
        <ele>806.2026367</ele>
        <time>2011-08-19T08:23:29Z</time>
      </trkpt>
      <trkpt lat="46.58321" lon="5.86045">
        <ele>803.7995605</ele>
        <time>2011-08-19T08:23:34Z</time>
      </trkpt>
      <trkpt lat="46.58313" lon="5.86036">
        <ele>802.3574219</ele>
        <time>2011-08-19T08:23:38Z</time>
      </trkpt>
      <trkpt lat="46.58302" lon="5.86028">
        <ele>798.512207</ele>
        <time>2011-08-19T08:23:43Z</time>
      </trkpt>
      <trkpt lat="46.58288" lon="5.86015">
        <ele>798.9929199</ele>
        <time>2011-08-19T08:23:49Z</time>
      </trkpt>
      <trkpt lat="46.58279" lon="5.86">
        <ele>800.4350586</ele>
        <time>2011-08-19T08:23:55Z</time>
      </trkpt>
      <trkpt lat="46.58272" lon="5.85987">
        <ele>805.2414551</ele>
        <time>2011-08-19T08:24:00Z</time>
      </trkpt>
      <trkpt lat="46.58269" lon="5.85977">
        <ele>807.1640625</ele>
        <time>2011-08-19T08:24:03Z</time>
      </trkpt>
      <trkpt lat="46.58267" lon="5.85964">
        <ele>811.4899902</ele>
        <time>2011-08-19T08:24:09Z</time>
      </trkpt>
      <trkpt lat="46.58265" lon="5.85959">
        <ele>811.0092773</ele>
        <time>2011-08-19T08:24:11Z</time>
      </trkpt>
      <trkpt lat="46.58263" lon="5.85951">
        <ele>811.9707031</ele>
        <time>2011-08-19T08:24:14Z</time>
      </trkpt>
      <trkpt lat="46.58257" lon="5.85932">
        <ele>813.4128418</ele>
        <time>2011-08-19T08:24:20Z</time>
      </trkpt>
      <trkpt lat="46.58254" lon="5.85917">
        <ele>820.1418457</ele>
        <time>2011-08-19T08:24:27Z</time>
      </trkpt>
      <trkpt lat="46.58246" lon="5.85902">
        <ele>820.6225586</ele>
        <time>2011-08-19T08:24:33Z</time>
      </trkpt>
      <trkpt lat="46.58243" lon="5.85897">
        <ele>819.1806641</ele>
        <time>2011-08-19T08:24:35Z</time>
      </trkpt>
      <trkpt lat="46.58233" lon="5.85883">
        <ele>816.7773438</ele>
        <time>2011-08-19T08:24:41Z</time>
      </trkpt>
      <trkpt lat="46.58223" lon="5.85867">
        <ele>814.3740234</ele>
        <time>2011-08-19T08:24:48Z</time>
      </trkpt>
      <trkpt lat="46.58218" lon="5.85857">
        <ele>814.3740234</ele>
        <time>2011-08-19T08:24:52Z</time>
      </trkpt>
      <trkpt lat="46.58212" lon="5.85844">
        <ele>813.8933105</ele>
        <time>2011-08-19T08:24:57Z</time>
      </trkpt>
      <trkpt lat="46.58207" lon="5.85832">
        <ele>812.451416</ele>
        <time>2011-08-19T08:25:01Z</time>
      </trkpt>
      <trkpt lat="46.58198" lon="5.85823">
        <ele>811.9707031</ele>
        <time>2011-08-19T08:25:06Z</time>
      </trkpt>
      <trkpt lat="46.58194" lon="5.85821">
        <ele>811.4899902</ele>
        <time>2011-08-19T08:25:08Z</time>
      </trkpt>
      <trkpt lat="46.58187" lon="5.85816">
        <ele>811.4899902</ele>
        <time>2011-08-19T08:25:12Z</time>
      </trkpt>
      <trkpt lat="46.58173" lon="5.85805">
        <ele>810.0478516</ele>
        <time>2011-08-19T08:25:18Z</time>
      </trkpt>
      <trkpt lat="46.58163" lon="5.85797">
        <ele>809.5673828</ele>
        <time>2011-08-19T08:25:22Z</time>
      </trkpt>
      <trkpt lat="46.58155" lon="5.85784">
        <ele>809.5673828</ele>
        <time>2011-08-19T08:25:26Z</time>
      </trkpt>
      <trkpt lat="46.58146" lon="5.85768">
        <ele>808.605957</ele>
        <time>2011-08-19T08:25:31Z</time>
      </trkpt>
      <trkpt lat="46.58136" lon="5.85755">
        <ele>807.1640625</ele>
        <time>2011-08-19T08:25:36Z</time>
      </trkpt>
      <trkpt lat="46.58128" lon="5.85743">
        <ele>807.1640625</ele>
        <time>2011-08-19T08:25:41Z</time>
      </trkpt>
      <trkpt lat="46.58118" lon="5.85733">
        <ele>808.605957</ele>
        <time>2011-08-19T08:25:46Z</time>
      </trkpt>
      <trkpt lat="46.58109" lon="5.85718">
        <ele>811.4899902</ele>
        <time>2011-08-19T08:25:52Z</time>
      </trkpt>
      <trkpt lat="46.58105" lon="5.85708">
        <ele>812.9321289</ele>
        <time>2011-08-19T08:25:56Z</time>
      </trkpt>
      <trkpt lat="46.58102" lon="5.85695">
        <ele>816.7773438</ele>
        <time>2011-08-19T08:26:02Z</time>
      </trkpt>
      <trkpt lat="46.58099" lon="5.85688">
        <ele>820.6225586</ele>
        <time>2011-08-19T08:26:05Z</time>
      </trkpt>
      <trkpt lat="46.58096" lon="5.85676">
        <ele>823.0258789</ele>
        <time>2011-08-19T08:26:09Z</time>
      </trkpt>
      <trkpt lat="46.58091" lon="5.85658">
        <ele>822.545166</ele>
        <time>2011-08-19T08:26:16Z</time>
      </trkpt>
      <trkpt lat="46.5809" lon="5.85655">
        <ele>824.4677734</ele>
        <time>2011-08-19T08:26:18Z</time>
      </trkpt>
      <trkpt lat="46.58088" lon="5.85641">
        <ele>827.3518066</ele>
        <time>2011-08-19T08:26:23Z</time>
      </trkpt>
      <trkpt lat="46.58085" lon="5.85631">
        <ele>829.2744141</ele>
        <time>2011-08-19T08:26:27Z</time>
      </trkpt>
      <trkpt lat="46.58084" lon="5.85627">
        <ele>830.2358398</ele>
        <time>2011-08-19T08:26:29Z</time>
      </trkpt>
      <trkpt lat="46.58077" lon="5.85613">
        <ele>830.7165527</ele>
        <time>2011-08-19T08:26:35Z</time>
      </trkpt>
      <trkpt lat="46.58067" lon="5.85598">
        <ele>834.0810547</ele>
        <time>2011-08-19T08:26:41Z</time>
      </trkpt>
      <trkpt lat="46.58066" lon="5.85596">
        <ele>833.6003418</ele>
        <time>2011-08-19T08:26:42Z</time>
      </trkpt>
      <trkpt lat="46.58063" lon="5.85585">
        <ele>834.5617676</ele>
        <time>2011-08-19T08:26:47Z</time>
      </trkpt>
      <trkpt lat="46.5806" lon="5.85569">
        <ele>836.484375</ele>
        <time>2011-08-19T08:26:53Z</time>
      </trkpt>
      <trkpt lat="46.58056" lon="5.85557">
        <ele>836.484375</ele>
        <time>2011-08-19T08:26:58Z</time>
      </trkpt>
      <trkpt lat="46.58046" lon="5.85535">
        <ele>837.4455566</ele>
        <time>2011-08-19T08:27:06Z</time>
      </trkpt>
      <trkpt lat="46.58045" lon="5.85531">
        <ele>837.4455566</ele>
        <time>2011-08-19T08:27:07Z</time>
      </trkpt>
      <trkpt lat="46.5804" lon="5.85522">
        <ele>839.3681641</ele>
        <time>2011-08-19T08:27:11Z</time>
      </trkpt>
      <trkpt lat="46.5804" lon="5.85514">
        <ele>841.7714844</ele>
        <time>2011-08-19T08:27:15Z</time>
      </trkpt>
      <trkpt lat="46.58036" lon="5.85497">
        <ele>840.8100586</ele>
        <time>2011-08-19T08:27:21Z</time>
      </trkpt>
      <trkpt lat="46.58029" lon="5.85486">
        <ele>836.9648438</ele>
        <time>2011-08-19T08:27:25Z</time>
      </trkpt>
      <trkpt lat="46.58022" lon="5.85479">
        <ele>838.4069824</ele>
        <time>2011-08-19T08:27:30Z</time>
      </trkpt>
      <trkpt lat="46.58012" lon="5.85472">
        <ele>840.3295898</ele>
        <time>2011-08-19T08:27:35Z</time>
      </trkpt>
      <trkpt lat="46.58002" lon="5.85467">
        <ele>839.848877</ele>
        <time>2011-08-19T08:27:40Z</time>
      </trkpt>
      <trkpt lat="46.57998" lon="5.85466">
        <ele>840.3295898</ele>
        <time>2011-08-19T08:27:42Z</time>
      </trkpt>
      <trkpt lat="46.57987" lon="5.85461">
        <ele>838.8876953</ele>
        <time>2011-08-19T08:27:48Z</time>
      </trkpt>
      <trkpt lat="46.57974" lon="5.85455">
        <ele>836.9648438</ele>
        <time>2011-08-19T08:27:54Z</time>
      </trkpt>
      <trkpt lat="46.57963" lon="5.85448">
        <ele>837.9262695</ele>
        <time>2011-08-19T08:28:00Z</time>
      </trkpt>
      <trkpt lat="46.57958" lon="5.85445">
        <ele>838.4069824</ele>
        <time>2011-08-19T08:28:03Z</time>
      </trkpt>
      <trkpt lat="46.57945" lon="5.8544">
        <ele>838.4069824</ele>
        <time>2011-08-19T08:28:09Z</time>
      </trkpt>
      <trkpt lat="46.57937" lon="5.85435">
        <ele>840.8100586</ele>
        <time>2011-08-19T08:28:14Z</time>
      </trkpt>
      <trkpt lat="46.57933" lon="5.85433">
        <ele>841.7714844</ele>
        <time>2011-08-19T08:28:17Z</time>
      </trkpt>
      <trkpt lat="46.57922" lon="5.85427">
        <ele>843.6940918</ele>
        <time>2011-08-19T08:28:23Z</time>
      </trkpt>
      <trkpt lat="46.57913" lon="5.85423">
        <ele>845.1362305</ele>
        <time>2011-08-19T08:28:27Z</time>
      </trkpt>
      <trkpt lat="46.57902" lon="5.85417">
        <ele>842.7329102</ele>
        <time>2011-08-19T08:28:33Z</time>
      </trkpt>
      <trkpt lat="46.57893" lon="5.85415">
        <ele>840.8100586</ele>
        <time>2011-08-19T08:28:39Z</time>
      </trkpt>
      <trkpt lat="46.57888" lon="5.85414">
        <ele>840.8100586</ele>
        <time>2011-08-19T08:28:43Z</time>
      </trkpt>
      <trkpt lat="46.57879" lon="5.85417">
        <ele>839.848877</ele>
        <time>2011-08-19T08:28:48Z</time>
      </trkpt>
      <trkpt lat="46.57877" lon="5.85418">
        <ele>840.8100586</ele>
        <time>2011-08-19T08:28:50Z</time>
      </trkpt>
      <trkpt lat="46.57873" lon="5.85422">
        <ele>841.7714844</ele>
        <time>2011-08-19T08:28:53Z</time>
      </trkpt>
      <trkpt lat="46.5787" lon="5.85428">
        <ele>842.2521973</ele>
        <time>2011-08-19T08:28:57Z</time>
      </trkpt>
      <trkpt lat="46.57872" lon="5.85441">
        <ele>840.8100586</ele>
        <time>2011-08-19T08:29:05Z</time>
      </trkpt>
      <trkpt lat="46.57873" lon="5.85442">
        <ele>841.2907715</ele>
        <time>2011-08-19T08:29:06Z</time>
      </trkpt>
      <trkpt lat="46.57872" lon="5.85455">
        <ele>842.2521973</ele>
        <time>2011-08-19T08:29:13Z</time>
      </trkpt>
      <trkpt lat="46.57871" lon="5.85457">
        <ele>842.7329102</ele>
        <time>2011-08-19T08:29:14Z</time>
      </trkpt>
      <trkpt lat="46.57869" lon="5.85469">
        <ele>842.7329102</ele>
        <time>2011-08-19T08:29:21Z</time>
      </trkpt>
      <trkpt lat="46.57868" lon="5.85477">
        <ele>841.2907715</ele>
        <time>2011-08-19T08:29:27Z</time>
      </trkpt>
      <trkpt lat="46.57865" lon="5.85483">
        <ele>839.3681641</ele>
        <time>2011-08-19T08:29:32Z</time>
      </trkpt>
      <trkpt lat="46.57865" lon="5.85488">
        <ele>842.2521973</ele>
        <time>2011-08-19T08:29:35Z</time>
      </trkpt>
      <trkpt lat="46.57868" lon="5.85499">
        <ele>845.6169434</ele>
        <time>2011-08-19T08:29:39Z</time>
      </trkpt>
      <trkpt lat="46.57869" lon="5.85511">
        <ele>847.0588379</ele>
        <time>2011-08-19T08:29:44Z</time>
      </trkpt>
      <trkpt lat="46.57873" lon="5.85517">
        <ele>850.9040527</ele>
        <time>2011-08-19T08:29:46Z</time>
      </trkpt>
      <trkpt lat="46.57877" lon="5.85535">
        <ele>854.2687988</ele>
        <time>2011-08-19T08:29:53Z</time>
      </trkpt>
      <trkpt lat="46.57881" lon="5.8554">
        <ele>853.7880859</ele>
        <time>2011-08-19T08:29:55Z</time>
      </trkpt>
      <trkpt lat="46.57885" lon="5.85553">
        <ele>850.423584</ele>
        <time>2011-08-19T08:30:00Z</time>
      </trkpt>
      <trkpt lat="46.57889" lon="5.85578">
        <ele>850.9040527</ele>
        <time>2011-08-19T08:30:06Z</time>
      </trkpt>
      <trkpt lat="46.57889" lon="5.85592">
        <ele>849.4621582</ele>
        <time>2011-08-19T08:30:10Z</time>
      </trkpt>
      <trkpt lat="46.5789" lon="5.85607">
        <ele>850.423584</ele>
        <time>2011-08-19T08:30:14Z</time>
      </trkpt>
      <trkpt lat="46.57891" lon="5.85622">
        <ele>848.0202637</ele>
        <time>2011-08-19T08:30:18Z</time>
      </trkpt>
      <trkpt lat="46.57886" lon="5.8565">
        <ele>843.6940918</ele>
        <time>2011-08-19T08:30:26Z</time>
      </trkpt>
      <trkpt lat="46.57884" lon="5.85665">
        <ele>846.5783691</ele>
        <time>2011-08-19T08:30:30Z</time>
      </trkpt>
      <trkpt lat="46.57884" lon="5.85679">
        <ele>843.6940918</ele>
        <time>2011-08-19T08:30:34Z</time>
      </trkpt>
      <trkpt lat="46.57888" lon="5.85697">
        <ele>855.2299805</ele>
        <time>2011-08-19T08:30:40Z</time>
      </trkpt>
      <trkpt lat="46.57891" lon="5.85704">
        <ele>856.671875</ele>
        <time>2011-08-19T08:30:43Z</time>
      </trkpt>
      <trkpt lat="46.57894" lon="5.85714">
        <ele>855.2299805</ele>
        <time>2011-08-19T08:30:47Z</time>
      </trkpt>
      <trkpt lat="46.579" lon="5.85723">
        <ele>854.7492676</ele>
        <time>2011-08-19T08:30:51Z</time>
      </trkpt>
      <trkpt lat="46.57907" lon="5.85743">
        <ele>853.7880859</ele>
        <time>2011-08-19T08:30:58Z</time>
      </trkpt>
      <trkpt lat="46.57909" lon="5.85751">
        <ele>852.8266602</ele>
        <time>2011-08-19T08:31:00Z</time>
      </trkpt>
      <trkpt lat="46.57912" lon="5.8577">
        <ele>848.0202637</ele>
        <time>2011-08-19T08:31:05Z</time>
      </trkpt>
      <trkpt lat="46.57909" lon="5.85779">
        <ele>845.6169434</ele>
        <time>2011-08-19T08:31:08Z</time>
      </trkpt>
      <trkpt lat="46.57915" lon="5.85799">
        <ele>848.5007324</ele>
        <time>2011-08-19T08:31:14Z</time>
      </trkpt>
      <trkpt lat="46.57919" lon="5.8582">
        <ele>848.0202637</ele>
        <time>2011-08-19T08:31:19Z</time>
      </trkpt>
      <trkpt lat="46.57927" lon="5.8584">
        <ele>848.9814453</ele>
        <time>2011-08-19T08:31:24Z</time>
      </trkpt>
      <trkpt lat="46.5793" lon="5.85847">
        <ele>848.0202637</ele>
        <time>2011-08-19T08:31:26Z</time>
      </trkpt>
      <trkpt lat="46.57932" lon="5.85856">
        <ele>847.0588379</ele>
        <time>2011-08-19T08:31:29Z</time>
      </trkpt>
      <trkpt lat="46.57935" lon="5.85865">
        <ele>844.6555176</ele>
        <time>2011-08-19T08:31:33Z</time>
      </trkpt>
      <trkpt lat="46.57944" lon="5.8588">
        <ele>840.3295898</ele>
        <time>2011-08-19T08:31:40Z</time>
      </trkpt>
      <trkpt lat="46.5795" lon="5.85897">
        <ele>836.9648438</ele>
        <time>2011-08-19T08:31:46Z</time>
      </trkpt>
      <trkpt lat="46.57957" lon="5.85914">
        <ele>836.484375</ele>
        <time>2011-08-19T08:31:52Z</time>
      </trkpt>
      <trkpt lat="46.57964" lon="5.85931">
        <ele>834.0810547</ele>
        <time>2011-08-19T08:31:57Z</time>
      </trkpt>
      <trkpt lat="46.57966" lon="5.85935">
        <ele>834.0810547</ele>
        <time>2011-08-19T08:31:58Z</time>
      </trkpt>
      <trkpt lat="46.57974" lon="5.85945">
        <ele>834.0810547</ele>
        <time>2011-08-19T08:32:02Z</time>
      </trkpt>
      <trkpt lat="46.57986" lon="5.85962">
        <ele>833.6003418</ele>
        <time>2011-08-19T08:32:08Z</time>
      </trkpt>
      <trkpt lat="46.57988" lon="5.85965">
        <ele>833.6003418</ele>
        <time>2011-08-19T08:32:09Z</time>
      </trkpt>
      <trkpt lat="46.57995" lon="5.85976">
        <ele>831.6777344</ele>
        <time>2011-08-19T08:32:13Z</time>
      </trkpt>
      <trkpt lat="46.5801" lon="5.8599">
        <ele>833.1196289</ele>
        <time>2011-08-19T08:32:20Z</time>
      </trkpt>
      <trkpt lat="46.58021" lon="5.86">
        <ele>834.5617676</ele>
        <time>2011-08-19T08:32:25Z</time>
      </trkpt>
      <trkpt lat="46.58032" lon="5.86008">
        <ele>837.9262695</ele>
        <time>2011-08-19T08:32:29Z</time>
      </trkpt>
      <trkpt lat="46.58045" lon="5.86017">
        <ele>844.6555176</ele>
        <time>2011-08-19T08:32:34Z</time>
      </trkpt>
      <trkpt lat="46.5806" lon="5.86026">
        <ele>845.6169434</ele>
        <time>2011-08-19T08:32:39Z</time>
      </trkpt>
      <trkpt lat="46.58067" lon="5.86029">
        <ele>844.1750488</ele>
        <time>2011-08-19T08:32:43Z</time>
      </trkpt>
      <trkpt lat="46.58078" lon="5.86039">
        <ele>843.6940918</ele>
        <time>2011-08-19T08:32:48Z</time>
      </trkpt>
      <trkpt lat="46.58087" lon="5.86049">
        <ele>845.6169434</ele>
        <time>2011-08-19T08:32:53Z</time>
      </trkpt>
      <trkpt lat="46.58096" lon="5.86058">
        <ele>842.2521973</ele>
        <time>2011-08-19T08:32:59Z</time>
      </trkpt>
      <trkpt lat="46.58108" lon="5.86074">
        <ele>837.4455566</ele>
        <time>2011-08-19T08:33:05Z</time>
      </trkpt>
      <trkpt lat="46.58117" lon="5.86088">
        <ele>836.0036621</ele>
        <time>2011-08-19T08:33:10Z</time>
      </trkpt>
      <trkpt lat="46.58124" lon="5.86101">
        <ele>836.0036621</ele>
        <time>2011-08-19T08:33:15Z</time>
      </trkpt>
      <trkpt lat="46.58129" lon="5.86114">
        <ele>836.9648438</ele>
        <time>2011-08-19T08:33:19Z</time>
      </trkpt>
      <trkpt lat="46.5814" lon="5.86132">
        <ele>837.4455566</ele>
        <time>2011-08-19T08:33:24Z</time>
      </trkpt>
      <trkpt lat="46.5815" lon="5.86147">
        <ele>836.9648438</ele>
        <time>2011-08-19T08:33:29Z</time>
      </trkpt>
      <trkpt lat="46.5816" lon="5.86165">
        <ele>842.2521973</ele>
        <time>2011-08-19T08:33:34Z</time>
      </trkpt>
      <trkpt lat="46.58167" lon="5.86179">
        <ele>842.2521973</ele>
        <time>2011-08-19T08:33:39Z</time>
      </trkpt>
      <trkpt lat="46.58171" lon="5.86187">
        <ele>840.8100586</ele>
        <time>2011-08-19T08:33:42Z</time>
      </trkpt>
      <trkpt lat="46.58175" lon="5.86195">
        <ele>838.8876953</ele>
        <time>2011-08-19T08:33:47Z</time>
      </trkpt>
      <trkpt lat="46.58176" lon="5.86197">
        <ele>838.4069824</ele>
        <time>2011-08-19T08:33:48Z</time>
      </trkpt>
      <trkpt lat="46.58183" lon="5.86207">
        <ele>837.4455566</ele>
        <time>2011-08-19T08:33:52Z</time>
      </trkpt>
      <trkpt lat="46.5819" lon="5.86216">
        <ele>836.0036621</ele>
        <time>2011-08-19T08:33:56Z</time>
      </trkpt>
      <trkpt lat="46.58202" lon="5.86231">
        <ele>834.5617676</ele>
        <time>2011-08-19T08:34:03Z</time>
      </trkpt>
      <trkpt lat="46.58213" lon="5.86239">
        <ele>833.6003418</ele>
        <time>2011-08-19T08:34:07Z</time>
      </trkpt>
      <trkpt lat="46.58219" lon="5.86248">
        <ele>832.1584473</ele>
        <time>2011-08-19T08:34:10Z</time>
      </trkpt>
      <trkpt lat="46.58232" lon="5.86264">
        <ele>830.7165527</ele>
        <time>2011-08-19T08:34:16Z</time>
      </trkpt>
      <trkpt lat="46.58241" lon="5.8628">
        <ele>832.1584473</ele>
        <time>2011-08-19T08:34:21Z</time>
      </trkpt>
      <trkpt lat="46.58248" lon="5.8629">
        <ele>833.1196289</ele>
        <time>2011-08-19T08:34:25Z</time>
      </trkpt>
      <trkpt lat="46.58257" lon="5.86304">
        <ele>833.1196289</ele>
        <time>2011-08-19T08:34:30Z</time>
      </trkpt>
      <trkpt lat="46.58259" lon="5.86307">
        <ele>833.1196289</ele>
        <time>2011-08-19T08:34:31Z</time>
      </trkpt>
      <trkpt lat="46.58269" lon="5.86316">
        <ele>831.6777344</ele>
        <time>2011-08-19T08:34:36Z</time>
      </trkpt>
      <trkpt lat="46.58279" lon="5.8633">
        <ele>830.7165527</ele>
        <time>2011-08-19T08:34:41Z</time>
      </trkpt>
      <trkpt lat="46.58287" lon="5.86345">
        <ele>831.1972656</ele>
        <time>2011-08-19T08:34:46Z</time>
      </trkpt>
      <trkpt lat="46.58294" lon="5.86355">
        <ele>829.755127</ele>
        <time>2011-08-19T08:34:51Z</time>
      </trkpt>
      <trkpt lat="46.58302" lon="5.86367">
        <ele>828.7939453</ele>
        <time>2011-08-19T08:34:56Z</time>
      </trkpt>
      <trkpt lat="46.58312" lon="5.86378">
        <ele>829.755127</ele>
        <time>2011-08-19T08:35:01Z</time>
      </trkpt>
      <trkpt lat="46.58321" lon="5.8639">
        <ele>828.7939453</ele>
        <time>2011-08-19T08:35:06Z</time>
      </trkpt>
      <trkpt lat="46.5833" lon="5.86407">
        <ele>827.8322754</ele>
        <time>2011-08-19T08:35:12Z</time>
      </trkpt>
      <trkpt lat="46.58342" lon="5.86429">
        <ele>832.1584473</ele>
        <time>2011-08-19T08:35:18Z</time>
      </trkpt>
      <trkpt lat="46.58349" lon="5.86448">
        <ele>829.2744141</ele>
        <time>2011-08-19T08:35:24Z</time>
      </trkpt>
      <trkpt lat="46.58356" lon="5.8646">
        <ele>830.2358398</ele>
        <time>2011-08-19T08:35:28Z</time>
      </trkpt>
      <trkpt lat="46.58364" lon="5.86471">
        <ele>826.8710938</ele>
        <time>2011-08-19T08:35:33Z</time>
      </trkpt>
      <trkpt lat="46.58376" lon="5.86486">
        <ele>821.1032715</ele>
        <time>2011-08-19T08:35:39Z</time>
      </trkpt>
      <trkpt lat="46.58386" lon="5.86499">
        <ele>823.9870605</ele>
        <time>2011-08-19T08:35:44Z</time>
      </trkpt>
      <trkpt lat="46.58396" lon="5.86517">
        <ele>830.2358398</ele>
        <time>2011-08-19T08:35:49Z</time>
      </trkpt>
      <trkpt lat="46.58402" lon="5.86529">
        <ele>823.9870605</ele>
        <time>2011-08-19T08:35:54Z</time>
      </trkpt>
      <trkpt lat="46.58403" lon="5.86532">
        <ele>823.9870605</ele>
        <time>2011-08-19T08:35:55Z</time>
      </trkpt>
      <trkpt lat="46.58411" lon="5.86542">
        <ele>817.7385254</ele>
        <time>2011-08-19T08:36:01Z</time>
      </trkpt>
      <trkpt lat="46.58417" lon="5.86551">
        <ele>817.2580566</ele>
        <time>2011-08-19T08:36:05Z</time>
      </trkpt>
      <trkpt lat="46.58422" lon="5.86559">
        <ele>817.2580566</ele>
        <time>2011-08-19T08:36:08Z</time>
      </trkpt>
      <trkpt lat="46.58428" lon="5.86576">
        <ele>818.2192383</ele>
        <time>2011-08-19T08:36:13Z</time>
      </trkpt>
      <trkpt lat="46.5843" lon="5.86585">
        <ele>816.2966309</ele>
        <time>2011-08-19T08:36:16Z</time>
      </trkpt>
      <trkpt lat="46.58438" lon="5.86615">
        <ele>818.2192383</ele>
        <time>2011-08-19T08:36:23Z</time>
      </trkpt>
      <trkpt lat="46.58443" lon="5.86634">
        <ele>818.6999512</ele>
        <time>2011-08-19T08:36:28Z</time>
      </trkpt>
      <trkpt lat="46.58448" lon="5.86649">
        <ele>817.2580566</ele>
        <time>2011-08-19T08:36:33Z</time>
      </trkpt>
      <trkpt lat="46.58454" lon="5.86662">
        <ele>816.2966309</ele>
        <time>2011-08-19T08:36:38Z</time>
      </trkpt>
      <trkpt lat="46.58459" lon="5.86679">
        <ele>814.8547363</ele>
        <time>2011-08-19T08:36:44Z</time>
      </trkpt>
      <trkpt lat="46.58462" lon="5.86691">
        <ele>816.7773438</ele>
        <time>2011-08-19T08:36:48Z</time>
      </trkpt>
      <trkpt lat="46.58463" lon="5.86695">
        <ele>816.7773438</ele>
        <time>2011-08-19T08:36:49Z</time>
      </trkpt>
      <trkpt lat="46.58476" lon="5.86714">
        <ele>820.6225586</ele>
        <time>2011-08-19T08:36:56Z</time>
      </trkpt>
      <trkpt lat="46.58485" lon="5.86734">
        <ele>815.3354492</ele>
        <time>2011-08-19T08:37:01Z</time>
      </trkpt>
      <trkpt lat="46.58498" lon="5.86756">
        <ele>815.8161621</ele>
        <time>2011-08-19T08:37:07Z</time>
      </trkpt>
      <trkpt lat="46.58511" lon="5.8677">
        <ele>814.8547363</ele>
        <time>2011-08-19T08:37:12Z</time>
      </trkpt>
      <trkpt lat="46.5852" lon="5.86776">
        <ele>816.2966309</ele>
        <time>2011-08-19T08:37:16Z</time>
      </trkpt>
      <trkpt lat="46.58532" lon="5.86785">
        <ele>818.6999512</ele>
        <time>2011-08-19T08:37:21Z</time>
      </trkpt>
      <trkpt lat="46.58545" lon="5.86793">
        <ele>821.1032715</ele>
        <time>2011-08-19T08:37:26Z</time>
      </trkpt>
      <trkpt lat="46.58553" lon="5.86797">
        <ele>821.1032715</ele>
        <time>2011-08-19T08:37:31Z</time>
      </trkpt>
      <trkpt lat="46.58563" lon="5.86797">
        <ele>821.5837402</ele>
        <time>2011-08-19T08:37:36Z</time>
      </trkpt>
      <trkpt lat="46.58576" lon="5.86795">
        <ele>823.0258789</ele>
        <time>2011-08-19T08:37:41Z</time>
      </trkpt>
      <trkpt lat="46.58587" lon="5.86798">
        <ele>822.0644531</ele>
        <time>2011-08-19T08:37:45Z</time>
      </trkpt>
      <trkpt lat="46.58598" lon="5.868">
        <ele>823.0258789</ele>
        <time>2011-08-19T08:37:50Z</time>
      </trkpt>
      <trkpt lat="46.58612" lon="5.8681">
        <ele>819.661377</ele>
        <time>2011-08-19T08:37:56Z</time>
      </trkpt>
      <trkpt lat="46.58621" lon="5.86824">
        <ele>818.6999512</ele>
        <time>2011-08-19T08:38:00Z</time>
      </trkpt>
      <trkpt lat="46.58635" lon="5.86846">
        <ele>808.1254883</ele>
        <time>2011-08-19T08:38:07Z</time>
      </trkpt>
      <trkpt lat="46.58642" lon="5.86857">
        <ele>808.605957</ele>
        <time>2011-08-19T08:38:12Z</time>
      </trkpt>
      <trkpt lat="46.58654" lon="5.86868">
        <ele>809.0866699</ele>
        <time>2011-08-19T08:38:17Z</time>
      </trkpt>
      <trkpt lat="46.58666" lon="5.86877">
        <ele>810.0478516</ele>
        <time>2011-08-19T08:38:22Z</time>
      </trkpt>
      <trkpt lat="46.58678" lon="5.86882">
        <ele>814.8547363</ele>
        <time>2011-08-19T08:38:27Z</time>
      </trkpt>
      <trkpt lat="46.5869" lon="5.86888">
        <ele>818.6999512</ele>
        <time>2011-08-19T08:38:32Z</time>
      </trkpt>
      <trkpt lat="46.58701" lon="5.86893">
        <ele>818.2192383</ele>
        <time>2011-08-19T08:38:37Z</time>
      </trkpt>
      <trkpt lat="46.58714" lon="5.86897">
        <ele>819.661377</ele>
        <time>2011-08-19T08:38:42Z</time>
      </trkpt>
      <trkpt lat="46.58726" lon="5.86899">
        <ele>822.0644531</ele>
        <time>2011-08-19T08:38:47Z</time>
      </trkpt>
      <trkpt lat="46.58738" lon="5.86901">
        <ele>823.0258789</ele>
        <time>2011-08-19T08:38:52Z</time>
      </trkpt>
      <trkpt lat="46.58754" lon="5.86911">
        <ele>816.7773438</ele>
        <time>2011-08-19T08:38:57Z</time>
      </trkpt>
      <trkpt lat="46.58767" lon="5.86912">
        <ele>812.9321289</ele>
        <time>2011-08-19T08:39:02Z</time>
      </trkpt>
      <trkpt lat="46.58781" lon="5.86912">
        <ele>811.9707031</ele>
        <time>2011-08-19T08:39:07Z</time>
      </trkpt>
      <trkpt lat="46.58795" lon="5.86913">
        <ele>814.8547363</ele>
        <time>2011-08-19T08:39:13Z</time>
      </trkpt>
      <trkpt lat="46.58808" lon="5.8692">
        <ele>815.3354492</ele>
        <time>2011-08-19T08:39:18Z</time>
      </trkpt>
      <trkpt lat="46.58822" lon="5.86925">
        <ele>816.2966309</ele>
        <time>2011-08-19T08:39:24Z</time>
      </trkpt>
      <trkpt lat="46.58833" lon="5.86932">
        <ele>813.4128418</ele>
        <time>2011-08-19T08:39:28Z</time>
      </trkpt>
      <trkpt lat="46.58842" lon="5.86938">
        <ele>811.4899902</ele>
        <time>2011-08-19T08:39:32Z</time>
      </trkpt>
      <trkpt lat="46.58854" lon="5.86944">
        <ele>813.8933105</ele>
        <time>2011-08-19T08:39:37Z</time>
      </trkpt>
      <trkpt lat="46.5886" lon="5.86946">
        <ele>814.8547363</ele>
        <time>2011-08-19T08:39:40Z</time>
      </trkpt>
      <trkpt lat="46.58875" lon="5.86943">
        <ele>818.2192383</ele>
        <time>2011-08-19T08:39:47Z</time>
      </trkpt>
      <trkpt lat="46.58889" lon="5.86948">
        <ele>818.6999512</ele>
        <time>2011-08-19T08:39:52Z</time>
      </trkpt>
      <trkpt lat="46.58901" lon="5.8695">
        <ele>817.2580566</ele>
        <time>2011-08-19T08:39:57Z</time>
      </trkpt>
      <trkpt lat="46.5891" lon="5.86951">
        <ele>816.2966309</ele>
        <time>2011-08-19T08:40:01Z</time>
      </trkpt>
      <trkpt lat="46.58924" lon="5.8695">
        <ele>818.6999512</ele>
        <time>2011-08-19T08:40:07Z</time>
      </trkpt>
      <trkpt lat="46.58941" lon="5.86953">
        <ele>823.9870605</ele>
        <time>2011-08-19T08:40:14Z</time>
      </trkpt>
      <trkpt lat="46.58955" lon="5.8696">
        <ele>823.9870605</ele>
        <time>2011-08-19T08:40:19Z</time>
      </trkpt>
      <trkpt lat="46.58965" lon="5.86967">
        <ele>823.5065918</ele>
        <time>2011-08-19T08:40:24Z</time>
      </trkpt>
      <trkpt lat="46.58972" lon="5.86971">
        <ele>822.545166</ele>
        <time>2011-08-19T08:40:27Z</time>
      </trkpt>
      <trkpt lat="46.58987" lon="5.8698">
        <ele>817.7385254</ele>
        <time>2011-08-19T08:40:33Z</time>
      </trkpt>
      <trkpt lat="46.58997" lon="5.86987">
        <ele>814.8547363</ele>
        <time>2011-08-19T08:40:37Z</time>
      </trkpt>
      <trkpt lat="46.59008" lon="5.86991">
        <ele>812.451416</ele>
        <time>2011-08-19T08:40:41Z</time>
      </trkpt>
      <trkpt lat="46.59019" lon="5.86996">
        <ele>811.4899902</ele>
        <time>2011-08-19T08:40:45Z</time>
      </trkpt>
      <trkpt lat="46.59028" lon="5.86999">
        <ele>814.8547363</ele>
        <time>2011-08-19T08:40:49Z</time>
      </trkpt>
      <trkpt lat="46.59037" lon="5.87004">
        <ele>817.2580566</ele>
        <time>2011-08-19T08:40:53Z</time>
      </trkpt>
      <trkpt lat="46.5905" lon="5.8702">
        <ele>818.2192383</ele>
        <time>2011-08-19T08:40:59Z</time>
      </trkpt>
      <trkpt lat="46.59061" lon="5.87038">
        <ele>811.9707031</ele>
        <time>2011-08-19T08:41:05Z</time>
      </trkpt>
      <trkpt lat="46.59069" lon="5.87059">
        <ele>807.6447754</ele>
        <time>2011-08-19T08:41:11Z</time>
      </trkpt>
      <trkpt lat="46.59073" lon="5.87077">
        <ele>803.7995605</ele>
        <time>2011-08-19T08:41:16Z</time>
      </trkpt>
      <trkpt lat="46.59078" lon="5.87094">
        <ele>802.3574219</ele>
        <time>2011-08-19T08:41:21Z</time>
      </trkpt>
      <trkpt lat="46.59081" lon="5.87117">
        <ele>803.7995605</ele>
        <time>2011-08-19T08:41:27Z</time>
      </trkpt>
      <trkpt lat="46.59083" lon="5.87131">
        <ele>803.7995605</ele>
        <time>2011-08-19T08:41:31Z</time>
      </trkpt>
      <trkpt lat="46.59089" lon="5.87144">
        <ele>804.7607422</ele>
        <time>2011-08-19T08:41:35Z</time>
      </trkpt>
      <trkpt lat="46.59098" lon="5.87162">
        <ele>803.7995605</ele>
        <time>2011-08-19T08:41:41Z</time>
      </trkpt>
      <trkpt lat="46.59105" lon="5.87175">
        <ele>800.4350586</ele>
        <time>2011-08-19T08:41:46Z</time>
      </trkpt>
      <trkpt lat="46.59114" lon="5.87182">
        <ele>802.3574219</ele>
        <time>2011-08-19T08:41:50Z</time>
      </trkpt>
      <trkpt lat="46.59125" lon="5.87187">
        <ele>806.6833496</ele>
        <time>2011-08-19T08:41:55Z</time>
      </trkpt>
      <trkpt lat="46.59136" lon="5.87191">
        <ele>808.1254883</ele>
        <time>2011-08-19T08:42:00Z</time>
      </trkpt>
      <trkpt lat="46.59149" lon="5.87193">
        <ele>806.6833496</ele>
        <time>2011-08-19T08:42:06Z</time>
      </trkpt>
      <trkpt lat="46.5916" lon="5.87197">
        <ele>806.2026367</ele>
        <time>2011-08-19T08:42:10Z</time>
      </trkpt>
      <trkpt lat="46.59173" lon="5.87203">
        <ele>806.6833496</ele>
        <time>2011-08-19T08:42:14Z</time>
      </trkpt>
      <trkpt lat="46.59184" lon="5.87208">
        <ele>807.1640625</ele>
        <time>2011-08-19T08:42:18Z</time>
      </trkpt>
      <trkpt lat="46.59194" lon="5.87216">
        <ele>805.722168</ele>
        <time>2011-08-19T08:42:23Z</time>
      </trkpt>
      <trkpt lat="46.59205" lon="5.87226">
        <ele>803.3188477</ele>
        <time>2011-08-19T08:42:28Z</time>
      </trkpt>
      <trkpt lat="46.59216" lon="5.87238">
        <ele>798.0317383</ele>
        <time>2011-08-19T08:42:34Z</time>
      </trkpt>
      <trkpt lat="46.59226" lon="5.87248">
        <ele>795.1474609</ele>
        <time>2011-08-19T08:42:39Z</time>
      </trkpt>
      <trkpt lat="46.59229" lon="5.8725">
        <ele>795.1474609</ele>
        <time>2011-08-19T08:42:40Z</time>
      </trkpt>
      <trkpt lat="46.59239" lon="5.87258">
        <ele>794.1862793</ele>
        <time>2011-08-19T08:42:45Z</time>
      </trkpt>
      <trkpt lat="46.59249" lon="5.87263">
        <ele>793.7055664</ele>
        <time>2011-08-19T08:42:48Z</time>
      </trkpt>
      <trkpt lat="46.5926" lon="5.87274">
        <ele>792.7443848</ele>
        <time>2011-08-19T08:42:53Z</time>
      </trkpt>
      <trkpt lat="46.59274" lon="5.87282">
        <ele>793.7055664</ele>
        <time>2011-08-19T08:42:58Z</time>
      </trkpt>
      <trkpt lat="46.59288" lon="5.87288">
        <ele>795.1474609</ele>
        <time>2011-08-19T08:43:03Z</time>
      </trkpt>
      <trkpt lat="46.59299" lon="5.87297">
        <ele>796.5898438</ele>
        <time>2011-08-19T08:43:07Z</time>
      </trkpt>
      <trkpt lat="46.59313" lon="5.87305">
        <ele>798.9929199</ele>
        <time>2011-08-19T08:43:12Z</time>
      </trkpt>
      <trkpt lat="46.59321" lon="5.87313">
        <ele>797.5510254</ele>
        <time>2011-08-19T08:43:17Z</time>
      </trkpt>
      <trkpt lat="46.59332" lon="5.87321">
        <ele>793.7055664</ele>
        <time>2011-08-19T08:43:22Z</time>
      </trkpt>
      <trkpt lat="46.5934" lon="5.87327">
        <ele>792.2636719</ele>
        <time>2011-08-19T08:43:25Z</time>
      </trkpt>
      <trkpt lat="46.59353" lon="5.87341">
        <ele>792.2636719</ele>
        <time>2011-08-19T08:43:31Z</time>
      </trkpt>
      <trkpt lat="46.59368" lon="5.87353">
        <ele>793.2248535</ele>
        <time>2011-08-19T08:43:37Z</time>
      </trkpt>
      <trkpt lat="46.59383" lon="5.87362">
        <ele>798.0317383</ele>
        <time>2011-08-19T08:43:43Z</time>
      </trkpt>
      <trkpt lat="46.59399" lon="5.87374">
        <ele>799.4736328</ele>
        <time>2011-08-19T08:43:49Z</time>
      </trkpt>
      <trkpt lat="46.59414" lon="5.87378">
        <ele>800.4350586</ele>
        <time>2011-08-19T08:43:53Z</time>
      </trkpt>
      <trkpt lat="46.59423" lon="5.87398">
        <ele>802.3574219</ele>
        <time>2011-08-19T08:43:59Z</time>
      </trkpt>
      <trkpt lat="46.59421" lon="5.8741">
        <ele>802.8381348</ele>
        <time>2011-08-19T08:44:02Z</time>
      </trkpt>
      <trkpt lat="46.59419" lon="5.87417">
        <ele>802.3574219</ele>
        <time>2011-08-19T08:44:04Z</time>
      </trkpt>
      <trkpt lat="46.59411" lon="5.87429">
        <ele>800.4350586</ele>
        <time>2011-08-19T08:44:09Z</time>
      </trkpt>
      <trkpt lat="46.594" lon="5.87437">
        <ele>799.4736328</ele>
        <time>2011-08-19T08:44:14Z</time>
      </trkpt>
      <trkpt lat="46.59389" lon="5.87446">
        <ele>798.0317383</ele>
        <time>2011-08-19T08:44:19Z</time>
      </trkpt>
      <trkpt lat="46.59377" lon="5.8745">
        <ele>796.5898438</ele>
        <time>2011-08-19T08:44:25Z</time>
      </trkpt>
      <trkpt lat="46.59373" lon="5.87453">
        <ele>798.0317383</ele>
        <time>2011-08-19T08:44:27Z</time>
      </trkpt>
      <trkpt lat="46.59361" lon="5.87459">
        <ele>797.5510254</ele>
        <time>2011-08-19T08:44:33Z</time>
      </trkpt>
      <trkpt lat="46.59349" lon="5.87466">
        <ele>798.512207</ele>
        <time>2011-08-19T08:44:38Z</time>
      </trkpt>
      <trkpt lat="46.59338" lon="5.87473">
        <ele>799.9543457</ele>
        <time>2011-08-19T08:44:43Z</time>
      </trkpt>
      <trkpt lat="46.59327" lon="5.8748">
        <ele>800.4350586</ele>
        <time>2011-08-19T08:44:48Z</time>
      </trkpt>
      <trkpt lat="46.59315" lon="5.87487">
        <ele>801.3962402</ele>
        <time>2011-08-19T08:44:54Z</time>
      </trkpt>
      <trkpt lat="46.59304" lon="5.87493">
        <ele>800.9155273</ele>
        <time>2011-08-19T08:44:59Z</time>
      </trkpt>
      <trkpt lat="46.59293" lon="5.875">
        <ele>798.0317383</ele>
        <time>2011-08-19T08:45:05Z</time>
      </trkpt>
      <trkpt lat="46.59283" lon="5.87508">
        <ele>797.0703125</ele>
        <time>2011-08-19T08:45:10Z</time>
      </trkpt>
      <trkpt lat="46.59274" lon="5.87517">
        <ele>797.0703125</ele>
        <time>2011-08-19T08:45:15Z</time>
      </trkpt>
      <trkpt lat="46.59265" lon="5.87527">
        <ele>797.0703125</ele>
        <time>2011-08-19T08:45:20Z</time>
      </trkpt>
      <trkpt lat="46.59255" lon="5.87541">
        <ele>796.5898438</ele>
        <time>2011-08-19T08:45:26Z</time>
      </trkpt>
      <trkpt lat="46.59246" lon="5.87555">
        <ele>797.5510254</ele>
        <time>2011-08-19T08:45:31Z</time>
      </trkpt>
      <trkpt lat="46.59237" lon="5.87565">
        <ele>798.0317383</ele>
        <time>2011-08-19T08:45:35Z</time>
      </trkpt>
      <trkpt lat="46.59224" lon="5.87577">
        <ele>799.4736328</ele>
        <time>2011-08-19T08:45:40Z</time>
      </trkpt>
      <trkpt lat="46.59212" lon="5.87581">
        <ele>800.4350586</ele>
        <time>2011-08-19T08:45:45Z</time>
      </trkpt>
      <trkpt lat="46.59202" lon="5.87583">
        <ele>801.8769531</ele>
        <time>2011-08-19T08:45:49Z</time>
      </trkpt>
      <trkpt lat="46.59192" lon="5.87584">
        <ele>804.2802734</ele>
        <time>2011-08-19T08:45:53Z</time>
      </trkpt>
      <trkpt lat="46.59178" lon="5.87589">
        <ele>805.722168</ele>
        <time>2011-08-19T08:45:59Z</time>
      </trkpt>
      <trkpt lat="46.59167" lon="5.87596">
        <ele>804.2802734</ele>
        <time>2011-08-19T08:46:04Z</time>
      </trkpt>
      <trkpt lat="46.59158" lon="5.87604">
        <ele>803.7995605</ele>
        <time>2011-08-19T08:46:08Z</time>
      </trkpt>
      <trkpt lat="46.59152" lon="5.87611">
        <ele>802.8381348</ele>
        <time>2011-08-19T08:46:11Z</time>
      </trkpt>
      <trkpt lat="46.59141" lon="5.87625">
        <ele>798.9929199</ele>
        <time>2011-08-19T08:46:17Z</time>
      </trkpt>
      <trkpt lat="46.59139" lon="5.87628">
        <ele>801.3962402</ele>
        <time>2011-08-19T08:46:18Z</time>
      </trkpt>
      <trkpt lat="46.59132" lon="5.87644">
        <ele>800.4350586</ele>
        <time>2011-08-19T08:46:24Z</time>
      </trkpt>
      <trkpt lat="46.59121" lon="5.8766">
        <ele>793.2248535</ele>
        <time>2011-08-19T08:46:30Z</time>
      </trkpt>
      <trkpt lat="46.59112" lon="5.87674">
        <ele>803.7995605</ele>
        <time>2011-08-19T08:46:35Z</time>
      </trkpt>
      <trkpt lat="46.59103" lon="5.8768">
        <ele>806.6833496</ele>
        <time>2011-08-19T08:46:39Z</time>
      </trkpt>
      <trkpt lat="46.59091" lon="5.87682">
        <ele>806.6833496</ele>
        <time>2011-08-19T08:46:44Z</time>
      </trkpt>
      <trkpt lat="46.59074" lon="5.87678">
        <ele>804.7607422</ele>
        <time>2011-08-19T08:46:50Z</time>
      </trkpt>
      <trkpt lat="46.59058" lon="5.87669">
        <ele>806.6833496</ele>
        <time>2011-08-19T08:46:56Z</time>
      </trkpt>
      <trkpt lat="46.59046" lon="5.87659">
        <ele>806.2026367</ele>
        <time>2011-08-19T08:47:01Z</time>
      </trkpt>
      <trkpt lat="46.59043" lon="5.87657">
        <ele>805.722168</ele>
        <time>2011-08-19T08:47:02Z</time>
      </trkpt>
      <trkpt lat="46.59027" lon="5.87649">
        <ele>800.9155273</ele>
        <time>2011-08-19T08:47:08Z</time>
      </trkpt>
      <trkpt lat="46.59012" lon="5.87644">
        <ele>801.3962402</ele>
        <time>2011-08-19T08:47:13Z</time>
      </trkpt>
      <trkpt lat="46.59004" lon="5.87636">
        <ele>800.9155273</ele>
        <time>2011-08-19T08:47:16Z</time>
      </trkpt>
      <trkpt lat="46.5899" lon="5.87632">
        <ele>805.2414551</ele>
        <time>2011-08-19T08:47:21Z</time>
      </trkpt>
      <trkpt lat="46.58977" lon="5.87625">
        <ele>810.0478516</ele>
        <time>2011-08-19T08:47:25Z</time>
      </trkpt>
      <trkpt lat="46.58973" lon="5.87625">
        <ele>812.9321289</ele>
        <time>2011-08-19T08:47:27Z</time>
      </trkpt>
      <trkpt lat="46.5896" lon="5.87623">
        <ele>820.1418457</ele>
        <time>2011-08-19T08:47:33Z</time>
      </trkpt>
      <trkpt lat="46.58943" lon="5.87621">
        <ele>822.0644531</ele>
        <time>2011-08-19T08:47:40Z</time>
      </trkpt>
      <trkpt lat="46.58932" lon="5.87617">
        <ele>821.1032715</ele>
        <time>2011-08-19T08:47:45Z</time>
      </trkpt>
      <trkpt lat="46.5893" lon="5.87615">
        <ele>821.5837402</ele>
        <time>2011-08-19T08:47:46Z</time>
      </trkpt>
      <trkpt lat="46.58916" lon="5.87614">
        <ele>818.6999512</ele>
        <time>2011-08-19T08:47:52Z</time>
      </trkpt>
      <trkpt lat="46.58914" lon="5.87613">
        <ele>815.3354492</ele>
        <time>2011-08-19T08:47:54Z</time>
      </trkpt>
      <trkpt lat="46.5891" lon="5.87603">
        <ele>810.0478516</ele>
        <time>2011-08-19T08:48:00Z</time>
      </trkpt>
      <trkpt lat="46.58908" lon="5.87603">
        <ele>805.2414551</ele>
        <time>2011-08-19T08:48:07Z</time>
      </trkpt>
      <trkpt lat="46.58905" lon="5.87603">
        <ele>797.5510254</ele>
        <time>2011-08-19T08:48:11Z</time>
      </trkpt>
      <trkpt lat="46.58895" lon="5.87598">
        <ele>798.512207</ele>
        <time>2011-08-19T08:48:16Z</time>
      </trkpt>
      <trkpt lat="46.58885" lon="5.87594">
        <ele>810.5285645</ele>
        <time>2011-08-19T08:48:21Z</time>
      </trkpt>
      <trkpt lat="46.58878" lon="5.87593">
        <ele>812.9321289</ele>
        <time>2011-08-19T08:48:24Z</time>
      </trkpt>
      <trkpt lat="46.58865" lon="5.87603">
        <ele>813.4128418</ele>
        <time>2011-08-19T08:48:30Z</time>
      </trkpt>
      <trkpt lat="46.58854" lon="5.87608">
        <ele>811.0092773</ele>
        <time>2011-08-19T08:48:34Z</time>
      </trkpt>
      <trkpt lat="46.58842" lon="5.87617">
        <ele>810.0478516</ele>
        <time>2011-08-19T08:48:40Z</time>
      </trkpt>
      <trkpt lat="46.58834" lon="5.87621">
        <ele>812.9321289</ele>
        <time>2011-08-19T08:48:44Z</time>
      </trkpt>
      <trkpt lat="46.58821" lon="5.87623">
        <ele>811.0092773</ele>
        <time>2011-08-19T08:48:49Z</time>
      </trkpt>
      <trkpt lat="46.58808" lon="5.87622">
        <ele>811.9707031</ele>
        <time>2011-08-19T08:48:55Z</time>
      </trkpt>
      <trkpt lat="46.58803" lon="5.8762">
        <ele>814.8547363</ele>
        <time>2011-08-19T08:48:57Z</time>
      </trkpt>
      <trkpt lat="46.58795" lon="5.87624">
        <ele>819.661377</ele>
        <time>2011-08-19T08:49:02Z</time>
      </trkpt>
      <trkpt lat="46.58788" lon="5.87626">
        <ele>823.0258789</ele>
        <time>2011-08-19T08:49:05Z</time>
      </trkpt>
      <trkpt lat="46.58774" lon="5.87627">
        <ele>824.9484863</ele>
        <time>2011-08-19T08:49:11Z</time>
      </trkpt>
      <trkpt lat="46.58769" lon="5.87624">
        <ele>827.8322754</ele>
        <time>2011-08-19T08:49:13Z</time>
      </trkpt>
      <trkpt lat="46.58754" lon="5.87606">
        <ele>829.755127</ele>
        <time>2011-08-19T08:49:19Z</time>
      </trkpt>
      <trkpt lat="46.58744" lon="5.87606">
        <ele>821.1032715</ele>
        <time>2011-08-19T08:49:24Z</time>
      </trkpt>
      <trkpt lat="46.58725" lon="5.87608">
        <ele>809.5673828</ele>
        <time>2011-08-19T08:49:32Z</time>
      </trkpt>
      <trkpt lat="46.58716" lon="5.87605">
        <ele>804.2802734</ele>
        <time>2011-08-19T08:49:37Z</time>
      </trkpt>
      <trkpt lat="46.58706" lon="5.87602">
        <ele>803.7995605</ele>
        <time>2011-08-19T08:49:41Z</time>
      </trkpt>
      <trkpt lat="46.58693" lon="5.87598">
        <ele>802.8381348</ele>
        <time>2011-08-19T08:49:47Z</time>
      </trkpt>
      <trkpt lat="46.58682" lon="5.87591">
        <ele>803.7995605</ele>
        <time>2011-08-19T08:49:52Z</time>
      </trkpt>
      <trkpt lat="46.58675" lon="5.87587">
        <ele>804.7607422</ele>
        <time>2011-08-19T08:49:55Z</time>
      </trkpt>
      <trkpt lat="46.58658" lon="5.87581">
        <ele>808.1254883</ele>
        <time>2011-08-19T08:50:01Z</time>
      </trkpt>
      <trkpt lat="46.58646" lon="5.87572">
        <ele>808.605957</ele>
        <time>2011-08-19T08:50:06Z</time>
      </trkpt>
      <trkpt lat="46.5864" lon="5.8756">
        <ele>807.1640625</ele>
        <time>2011-08-19T08:50:10Z</time>
      </trkpt>
      <trkpt lat="46.58629" lon="5.87553">
        <ele>802.8381348</ele>
        <time>2011-08-19T08:50:15Z</time>
      </trkpt>
      <trkpt lat="46.58627" lon="5.87551">
        <ele>801.3962402</ele>
        <time>2011-08-19T08:50:16Z</time>
      </trkpt>
      <trkpt lat="46.58611" lon="5.87548">
        <ele>801.3962402</ele>
        <time>2011-08-19T08:50:23Z</time>
      </trkpt>
      <trkpt lat="46.58601" lon="5.87544">
        <ele>801.8769531</ele>
        <time>2011-08-19T08:50:27Z</time>
      </trkpt>
      <trkpt lat="46.58589" lon="5.87539">
        <ele>801.3962402</ele>
        <time>2011-08-19T08:50:32Z</time>
      </trkpt>
      <trkpt lat="46.58582" lon="5.87539">
        <ele>799.4736328</ele>
        <time>2011-08-19T08:50:35Z</time>
      </trkpt>
      <trkpt lat="46.58571" lon="5.8754">
        <ele>800.4350586</ele>
        <time>2011-08-19T08:50:40Z</time>
      </trkpt>
      <trkpt lat="46.58561" lon="5.87543">
        <ele>798.512207</ele>
        <time>2011-08-19T08:50:44Z</time>
      </trkpt>
      <trkpt lat="46.58559" lon="5.87544">
        <ele>798.0317383</ele>
        <time>2011-08-19T08:50:45Z</time>
      </trkpt>
      <trkpt lat="46.58549" lon="5.87548">
        <ele>793.2248535</ele>
        <time>2011-08-19T08:50:50Z</time>
      </trkpt>
      <trkpt lat="46.58536" lon="5.87551">
        <ele>801.3962402</ele>
        <time>2011-08-19T08:50:55Z</time>
      </trkpt>
      <trkpt lat="46.58523" lon="5.87549">
        <ele>804.2802734</ele>
        <time>2011-08-19T08:50:59Z</time>
      </trkpt>
      <trkpt lat="46.58509" lon="5.87544">
        <ele>811.4899902</ele>
        <time>2011-08-19T08:51:04Z</time>
      </trkpt>
      <trkpt lat="46.58506" lon="5.87543">
        <ele>811.0092773</ele>
        <time>2011-08-19T08:51:05Z</time>
      </trkpt>
      <trkpt lat="46.58491" lon="5.87527">
        <ele>813.4128418</ele>
        <time>2011-08-19T08:51:11Z</time>
      </trkpt>
      <trkpt lat="46.58488" lon="5.87512">
        <ele>814.8547363</ele>
        <time>2011-08-19T08:51:15Z</time>
      </trkpt>
      <trkpt lat="46.58485" lon="5.87507">
        <ele>814.3740234</ele>
        <time>2011-08-19T08:51:19Z</time>
      </trkpt>
      <trkpt lat="46.58479" lon="5.87507">
        <ele>810.0478516</ele>
        <time>2011-08-19T08:51:22Z</time>
      </trkpt>
      <trkpt lat="46.58466" lon="5.87503">
        <ele>806.6833496</ele>
        <time>2011-08-19T08:51:28Z</time>
      </trkpt>
      <trkpt lat="46.58457" lon="5.875">
        <ele>803.7995605</ele>
        <time>2011-08-19T08:51:32Z</time>
      </trkpt>
      <trkpt lat="46.58447" lon="5.87488">
        <ele>802.8381348</ele>
        <time>2011-08-19T08:51:38Z</time>
      </trkpt>
      <trkpt lat="46.58436" lon="5.87478">
        <ele>802.8381348</ele>
        <time>2011-08-19T08:51:44Z</time>
      </trkpt>
      <trkpt lat="46.58434" lon="5.87477">
        <ele>802.8381348</ele>
        <time>2011-08-19T08:51:45Z</time>
      </trkpt>
      <trkpt lat="46.58424" lon="5.87473">
        <ele>803.3188477</ele>
        <time>2011-08-19T08:51:50Z</time>
      </trkpt>
      <trkpt lat="46.58417" lon="5.87472">
        <ele>804.2802734</ele>
        <time>2011-08-19T08:51:53Z</time>
      </trkpt>
      <trkpt lat="46.584" lon="5.87465">
        <ele>811.4899902</ele>
        <time>2011-08-19T08:51:59Z</time>
      </trkpt>
      <trkpt lat="46.58397" lon="5.87463">
        <ele>812.451416</ele>
        <time>2011-08-19T08:52:00Z</time>
      </trkpt>
      <trkpt lat="46.58386" lon="5.87446">
        <ele>816.2966309</ele>
        <time>2011-08-19T08:52:06Z</time>
      </trkpt>
      <trkpt lat="46.58385" lon="5.87445">
        <ele>815.8161621</ele>
        <time>2011-08-19T08:52:07Z</time>
      </trkpt>
      <trkpt lat="46.58373" lon="5.87431">
        <ele>808.1254883</ele>
        <time>2011-08-19T08:52:13Z</time>
      </trkpt>
      <trkpt lat="46.58366" lon="5.87421">
        <ele>804.2802734</ele>
        <time>2011-08-19T08:52:17Z</time>
      </trkpt>
      <trkpt lat="46.58361" lon="5.87409">
        <ele>802.8381348</ele>
        <time>2011-08-19T08:52:21Z</time>
      </trkpt>
      <trkpt lat="46.58352" lon="5.87396">
        <ele>801.3962402</ele>
        <time>2011-08-19T08:52:28Z</time>
      </trkpt>
      <trkpt lat="46.5835" lon="5.87392">
        <ele>803.3188477</ele>
        <time>2011-08-19T08:52:30Z</time>
      </trkpt>
      <trkpt lat="46.58346" lon="5.8738">
        <ele>798.9929199</ele>
        <time>2011-08-19T08:52:37Z</time>
      </trkpt>
      <trkpt lat="46.58346" lon="5.87378">
        <ele>798.0317383</ele>
        <time>2011-08-19T08:52:38Z</time>
      </trkpt>
      <trkpt lat="46.58343" lon="5.87367">
        <ele>794.666748</ele>
        <time>2011-08-19T08:52:45Z</time>
      </trkpt>
      <trkpt lat="46.58341" lon="5.87358">
        <ele>787.9377441</ele>
        <time>2011-08-19T08:52:51Z</time>
      </trkpt>
      <trkpt lat="46.5834" lon="5.87352">
        <ele>787.4570313</ele>
        <time>2011-08-19T08:52:54Z</time>
      </trkpt>
      <trkpt lat="46.58339" lon="5.87337">
        <ele>796.1091309</ele>
        <time>2011-08-19T08:53:01Z</time>
      </trkpt>
      <trkpt lat="46.58338" lon="5.87335">
        <ele>796.5898438</ele>
        <time>2011-08-19T08:53:03Z</time>
      </trkpt>
      <trkpt lat="46.58337" lon="5.87325">
        <ele>798.0317383</ele>
        <time>2011-08-19T08:53:07Z</time>
      </trkpt>
      <trkpt lat="46.58335" lon="5.87314">
        <ele>803.3188477</ele>
        <time>2011-08-19T08:53:11Z</time>
      </trkpt>
      <trkpt lat="46.58334" lon="5.87304">
        <ele>804.2802734</ele>
        <time>2011-08-19T08:53:15Z</time>
      </trkpt>
      <trkpt lat="46.58334" lon="5.87291">
        <ele>808.1254883</ele>
        <time>2011-08-19T08:53:20Z</time>
      </trkpt>
      <trkpt lat="46.58334" lon="5.87282">
        <ele>808.605957</ele>
        <time>2011-08-19T08:53:23Z</time>
      </trkpt>
      <trkpt lat="46.58336" lon="5.87269">
        <ele>808.1254883</ele>
        <time>2011-08-19T08:53:29Z</time>
      </trkpt>
      <trkpt lat="46.58334" lon="5.87263">
        <ele>807.6447754</ele>
        <time>2011-08-19T08:53:31Z</time>
      </trkpt>
      <trkpt lat="46.58332" lon="5.87249">
        <ele>806.6833496</ele>
        <time>2011-08-19T08:53:36Z</time>
      </trkpt>
      <trkpt lat="46.58333" lon="5.87235">
        <ele>805.722168</ele>
        <time>2011-08-19T08:53:41Z</time>
      </trkpt>
      <trkpt lat="46.58332" lon="5.87215">
        <ele>808.605957</ele>
        <time>2011-08-19T08:53:47Z</time>
      </trkpt>
      <trkpt lat="46.58332" lon="5.87207">
        <ele>808.1254883</ele>
        <time>2011-08-19T08:53:50Z</time>
      </trkpt>
      <trkpt lat="46.58333" lon="5.87202">
        <ele>809.0866699</ele>
        <time>2011-08-19T08:53:52Z</time>
      </trkpt>
      <trkpt lat="46.58331" lon="5.8718">
        <ele>810.5285645</ele>
        <time>2011-08-19T08:53:58Z</time>
      </trkpt>
      <trkpt lat="46.58332" lon="5.87167">
        <ele>810.5285645</ele>
        <time>2011-08-19T08:54:03Z</time>
      </trkpt>
      <trkpt lat="46.58332" lon="5.87156">
        <ele>808.605957</ele>
        <time>2011-08-19T08:54:07Z</time>
      </trkpt>
      <trkpt lat="46.58332" lon="5.87153">
        <ele>808.1254883</ele>
        <time>2011-08-19T08:54:08Z</time>
      </trkpt>
      <trkpt lat="46.58333" lon="5.87137">
        <ele>807.6447754</ele>
        <time>2011-08-19T08:54:14Z</time>
      </trkpt>
      <trkpt lat="46.58332" lon="5.8713">
        <ele>809.5673828</ele>
        <time>2011-08-19T08:54:17Z</time>
      </trkpt>
      <trkpt lat="46.58336" lon="5.87126">
        <ele>816.7773438</ele>
        <time>2011-08-19T08:54:21Z</time>
      </trkpt>
      <trkpt lat="46.58342" lon="5.87108">
        <ele>817.2580566</ele>
        <time>2011-08-19T08:54:27Z</time>
      </trkpt>
      <trkpt lat="46.58344" lon="5.87093">
        <ele>815.8161621</ele>
        <time>2011-08-19T08:54:31Z</time>
      </trkpt>
      <trkpt lat="46.58349" lon="5.87067">
        <ele>811.4899902</ele>
        <time>2011-08-19T08:54:37Z</time>
      </trkpt>
      <trkpt lat="46.58357" lon="5.8705">
        <ele>807.1640625</ele>
        <time>2011-08-19T08:54:43Z</time>
      </trkpt>
      <trkpt lat="46.58364" lon="5.87036">
        <ele>805.2414551</ele>
        <time>2011-08-19T08:54:48Z</time>
      </trkpt>
      <trkpt lat="46.58366" lon="5.87033">
        <ele>805.722168</ele>
        <time>2011-08-19T08:54:49Z</time>
      </trkpt>
      <trkpt lat="46.58371" lon="5.87023">
        <ele>807.1640625</ele>
        <time>2011-08-19T08:54:54Z</time>
      </trkpt>
      <trkpt lat="46.58373" lon="5.87018">
        <ele>806.2026367</ele>
        <time>2011-08-19T08:54:56Z</time>
      </trkpt>
      <trkpt lat="46.5838" lon="5.87004">
        <ele>808.1254883</ele>
        <time>2011-08-19T08:55:02Z</time>
      </trkpt>
      <trkpt lat="46.58388" lon="5.86992">
        <ele>811.4899902</ele>
        <time>2011-08-19T08:55:08Z</time>
      </trkpt>
      <trkpt lat="46.5839" lon="5.8699">
        <ele>811.4899902</ele>
        <time>2011-08-19T08:55:09Z</time>
      </trkpt>
      <trkpt lat="46.58398" lon="5.86966">
        <ele>809.5673828</ele>
        <time>2011-08-19T08:55:17Z</time>
      </trkpt>
      <trkpt lat="46.58402" lon="5.86942">
        <ele>806.6833496</ele>
        <time>2011-08-19T08:55:23Z</time>
      </trkpt>
      <trkpt lat="46.58403" lon="5.86939">
        <ele>805.722168</ele>
        <time>2011-08-19T08:55:24Z</time>
      </trkpt>
      <trkpt lat="46.5841" lon="5.86918">
        <ele>806.2026367</ele>
        <time>2011-08-19T08:55:30Z</time>
      </trkpt>
      <trkpt lat="46.58411" lon="5.86915">
        <ele>806.6833496</ele>
        <time>2011-08-19T08:55:31Z</time>
      </trkpt>
      <trkpt lat="46.58414" lon="5.86905">
        <ele>810.5285645</ele>
        <time>2011-08-19T08:55:35Z</time>
      </trkpt>
      <trkpt lat="46.58422" lon="5.86891">
        <ele>811.0092773</ele>
        <time>2011-08-19T08:55:41Z</time>
      </trkpt>
      <trkpt lat="46.58428" lon="5.86876">
        <ele>811.9707031</ele>
        <time>2011-08-19T08:55:46Z</time>
      </trkpt>
      <trkpt lat="46.58433" lon="5.86868">
        <ele>811.0092773</ele>
        <time>2011-08-19T08:55:50Z</time>
      </trkpt>
      <trkpt lat="46.58436" lon="5.86864">
        <ele>810.0478516</ele>
        <time>2011-08-19T08:55:52Z</time>
      </trkpt>
      <trkpt lat="46.58439" lon="5.86853">
        <ele>805.722168</ele>
        <time>2011-08-19T08:55:56Z</time>
      </trkpt>
      <trkpt lat="46.58442" lon="5.86834">
        <ele>796.5898438</ele>
        <time>2011-08-19T08:56:03Z</time>
      </trkpt>
      <trkpt lat="46.5844" lon="5.86814">
        <ele>796.1091309</ele>
        <time>2011-08-19T08:56:09Z</time>
      </trkpt>
      <trkpt lat="46.5844" lon="5.86809">
        <ele>797.0703125</ele>
        <time>2011-08-19T08:56:11Z</time>
      </trkpt>
      <trkpt lat="46.58439" lon="5.86792">
        <ele>798.512207</ele>
        <time>2011-08-19T08:56:17Z</time>
      </trkpt>
      <trkpt lat="46.58439" lon="5.86784">
        <ele>798.9929199</ele>
        <time>2011-08-19T08:56:20Z</time>
      </trkpt>
      <trkpt lat="46.58438" lon="5.86766">
        <ele>800.9155273</ele>
        <time>2011-08-19T08:56:26Z</time>
      </trkpt>
      <trkpt lat="46.58432" lon="5.86749">
        <ele>801.8769531</ele>
        <time>2011-08-19T08:56:32Z</time>
      </trkpt>
      <trkpt lat="46.58428" lon="5.86731">
        <ele>802.8381348</ele>
        <time>2011-08-19T08:56:39Z</time>
      </trkpt>
      <trkpt lat="46.58424" lon="5.8672">
        <ele>802.3574219</ele>
        <time>2011-08-19T08:56:44Z</time>
      </trkpt>
      <trkpt lat="46.58422" lon="5.86707">
        <ele>802.3574219</ele>
        <time>2011-08-19T08:56:49Z</time>
      </trkpt>
      <trkpt lat="46.58419" lon="5.86696">
        <ele>804.7607422</ele>
        <time>2011-08-19T08:56:53Z</time>
      </trkpt>
      <trkpt lat="46.58416" lon="5.86681">
        <ele>807.6447754</ele>
        <time>2011-08-19T08:56:58Z</time>
      </trkpt>
      <trkpt lat="46.58416" lon="5.86665">
        <ele>808.605957</ele>
        <time>2011-08-19T08:57:03Z</time>
      </trkpt>
      <trkpt lat="46.58419" lon="5.86656">
        <ele>812.451416</ele>
        <time>2011-08-19T08:57:06Z</time>
      </trkpt>
      <trkpt lat="46.5843" lon="5.86647">
        <ele>820.1418457</ele>
        <time>2011-08-19T08:57:12Z</time>
      </trkpt>
      <trkpt lat="46.58433" lon="5.86645">
        <ele>819.661377</ele>
        <time>2011-08-19T08:57:13Z</time>
      </trkpt>
      <trkpt lat="46.58445" lon="5.8665">
        <ele>818.2192383</ele>
        <time>2011-08-19T08:57:18Z</time>
      </trkpt>
      <trkpt lat="46.58454" lon="5.86665">
        <ele>813.8933105</ele>
        <time>2011-08-19T08:57:23Z</time>
      </trkpt>
      <trkpt lat="46.58462" lon="5.86675">
        <ele>809.0866699</ele>
        <time>2011-08-19T08:57:27Z</time>
      </trkpt>
      <trkpt lat="46.58466" lon="5.86686">
        <ele>808.605957</ele>
        <time>2011-08-19T08:57:31Z</time>
      </trkpt>
      <trkpt lat="46.58473" lon="5.86704">
        <ele>807.1640625</ele>
        <time>2011-08-19T08:57:37Z</time>
      </trkpt>
      <trkpt lat="46.58485" lon="5.8672">
        <ele>802.3574219</ele>
        <time>2011-08-19T08:57:42Z</time>
      </trkpt>
      <trkpt lat="46.58491" lon="5.86732">
        <ele>800.9155273</ele>
        <time>2011-08-19T08:57:46Z</time>
      </trkpt>
      <trkpt lat="46.585" lon="5.86748">
        <ele>795.6281738</ele>
        <time>2011-08-19T08:57:51Z</time>
      </trkpt>
      <trkpt lat="46.58507" lon="5.86764">
        <ele>795.1474609</ele>
        <time>2011-08-19T08:57:56Z</time>
      </trkpt>
      <trkpt lat="46.58516" lon="5.86774">
        <ele>797.0703125</ele>
        <time>2011-08-19T08:58:01Z</time>
      </trkpt>
      <trkpt lat="46.58521" lon="5.86783">
        <ele>800.9155273</ele>
        <time>2011-08-19T08:58:05Z</time>
      </trkpt>
      <trkpt lat="46.58523" lon="5.86785">
        <ele>801.3962402</ele>
        <time>2011-08-19T08:58:06Z</time>
      </trkpt>
      <trkpt lat="46.5854" lon="5.86795">
        <ele>805.2414551</ele>
        <time>2011-08-19T08:58:12Z</time>
      </trkpt>
      <trkpt lat="46.58545" lon="5.868">
        <ele>805.2414551</ele>
        <time>2011-08-19T08:58:14Z</time>
      </trkpt>
      <trkpt lat="46.58562" lon="5.86802">
        <ele>806.6833496</ele>
        <time>2011-08-19T08:58:21Z</time>
      </trkpt>
      <trkpt lat="46.58574" lon="5.86802">
        <ele>811.9707031</ele>
        <time>2011-08-19T08:58:25Z</time>
      </trkpt>
      <trkpt lat="46.58582" lon="5.86801">
        <ele>814.3740234</ele>
        <time>2011-08-19T08:58:28Z</time>
      </trkpt>
      <trkpt lat="46.58596" lon="5.86805">
        <ele>816.2966309</ele>
        <time>2011-08-19T08:58:33Z</time>
      </trkpt>
      <trkpt lat="46.58611" lon="5.86809">
        <ele>816.2966309</ele>
        <time>2011-08-19T08:58:39Z</time>
      </trkpt>
      <trkpt lat="46.58622" lon="5.8682">
        <ele>817.2580566</ele>
        <time>2011-08-19T08:58:44Z</time>
      </trkpt>
      <trkpt lat="46.5863" lon="5.86833">
        <ele>818.2192383</ele>
        <time>2011-08-19T08:58:49Z</time>
      </trkpt>
      <trkpt lat="46.58638" lon="5.86845">
        <ele>816.7773438</ele>
        <time>2011-08-19T08:58:53Z</time>
      </trkpt>
      <trkpt lat="46.58644" lon="5.86854">
        <ele>812.451416</ele>
        <time>2011-08-19T08:58:56Z</time>
      </trkpt>
      <trkpt lat="46.58659" lon="5.86866">
        <ele>809.5673828</ele>
        <time>2011-08-19T08:59:01Z</time>
      </trkpt>
      <trkpt lat="46.58679" lon="5.86877">
        <ele>806.2026367</ele>
        <time>2011-08-19T08:59:08Z</time>
      </trkpt>
      <trkpt lat="46.58682" lon="5.86879">
        <ele>806.2026367</ele>
        <time>2011-08-19T08:59:09Z</time>
      </trkpt>
      <trkpt lat="46.58693" lon="5.8689">
        <ele>805.722168</ele>
        <time>2011-08-19T08:59:14Z</time>
      </trkpt>
      <trkpt lat="46.58702" lon="5.8689">
        <ele>807.6447754</ele>
        <time>2011-08-19T08:59:18Z</time>
      </trkpt>
      <trkpt lat="46.58715" lon="5.86898">
        <ele>809.0866699</ele>
        <time>2011-08-19T08:59:24Z</time>
      </trkpt>
      <trkpt lat="46.5873" lon="5.86902">
        <ele>813.8933105</ele>
        <time>2011-08-19T08:59:29Z</time>
      </trkpt>
      <trkpt lat="46.58741" lon="5.86905">
        <ele>817.7385254</ele>
        <time>2011-08-19T08:59:33Z</time>
      </trkpt>
      <trkpt lat="46.58752" lon="5.86911">
        <ele>817.2580566</ele>
        <time>2011-08-19T08:59:38Z</time>
      </trkpt>
      <trkpt lat="46.58765" lon="5.86911">
        <ele>817.2580566</ele>
        <time>2011-08-19T08:59:43Z</time>
      </trkpt>
      <trkpt lat="46.58777" lon="5.86906">
        <ele>819.1806641</ele>
        <time>2011-08-19T08:59:48Z</time>
      </trkpt>
      <trkpt lat="46.58796" lon="5.86911">
        <ele>821.1032715</ele>
        <time>2011-08-19T08:59:55Z</time>
      </trkpt>
      <trkpt lat="46.58812" lon="5.86919">
        <ele>823.0258789</ele>
        <time>2011-08-19T09:00:00Z</time>
      </trkpt>
      <trkpt lat="46.58822" lon="5.86928">
        <ele>825.4289551</ele>
        <time>2011-08-19T09:00:05Z</time>
      </trkpt>
      <trkpt lat="46.58834" lon="5.86937">
        <ele>822.545166</ele>
        <time>2011-08-19T09:00:10Z</time>
      </trkpt>
      <trkpt lat="46.58841" lon="5.8694">
        <ele>820.6225586</ele>
        <time>2011-08-19T09:00:13Z</time>
      </trkpt>
      <trkpt lat="46.58849" lon="5.86948">
        <ele>817.7385254</ele>
        <time>2011-08-19T09:00:17Z</time>
      </trkpt>
      <trkpt lat="46.58859" lon="5.86953">
        <ele>818.6999512</ele>
        <time>2011-08-19T09:00:22Z</time>
      </trkpt>
      <trkpt lat="46.58866" lon="5.8695">
        <ele>821.1032715</ele>
        <time>2011-08-19T09:00:25Z</time>
      </trkpt>
      <trkpt lat="46.58876" lon="5.86948">
        <ele>819.661377</ele>
        <time>2011-08-19T09:00:29Z</time>
      </trkpt>
      <trkpt lat="46.58891" lon="5.8695">
        <ele>820.6225586</ele>
        <time>2011-08-19T09:00:35Z</time>
      </trkpt>
      <trkpt lat="46.58902" lon="5.86948">
        <ele>821.5837402</ele>
        <time>2011-08-19T09:00:40Z</time>
      </trkpt>
      <trkpt lat="46.58912" lon="5.8695">
        <ele>821.1032715</ele>
        <time>2011-08-19T09:00:45Z</time>
      </trkpt>
      <trkpt lat="46.58924" lon="5.86947">
        <ele>822.0644531</ele>
        <time>2011-08-19T09:00:50Z</time>
      </trkpt>
      <trkpt lat="46.58935" lon="5.86948">
        <ele>823.9870605</ele>
        <time>2011-08-19T09:00:55Z</time>
      </trkpt>
      <trkpt lat="46.58944" lon="5.86949">
        <ele>826.3903809</ele>
        <time>2011-08-19T09:01:00Z</time>
      </trkpt>
      <trkpt lat="46.58956" lon="5.86955">
        <ele>824.4677734</ele>
        <time>2011-08-19T09:01:05Z</time>
      </trkpt>
      <trkpt lat="46.58969" lon="5.86961">
        <ele>824.4677734</ele>
        <time>2011-08-19T09:01:10Z</time>
      </trkpt>
      <trkpt lat="46.58978" lon="5.86968">
        <ele>823.9870605</ele>
        <time>2011-08-19T09:01:15Z</time>
      </trkpt>
      <trkpt lat="46.58986" lon="5.86977">
        <ele>822.545166</ele>
        <time>2011-08-19T09:01:19Z</time>
      </trkpt>
      <trkpt lat="46.58997" lon="5.86984">
        <ele>819.661377</ele>
        <time>2011-08-19T09:01:23Z</time>
      </trkpt>
      <trkpt lat="46.59011" lon="5.86992">
        <ele>816.2966309</ele>
        <time>2011-08-19T09:01:28Z</time>
      </trkpt>
      <trkpt lat="46.59024" lon="5.86997">
        <ele>812.9321289</ele>
        <time>2011-08-19T09:01:32Z</time>
      </trkpt>
      <trkpt lat="46.59035" lon="5.87003">
        <ele>811.4899902</ele>
        <time>2011-08-19T09:01:36Z</time>
      </trkpt>
      <trkpt lat="46.59048" lon="5.8701">
        <ele>810.5285645</ele>
        <time>2011-08-19T09:01:41Z</time>
      </trkpt>
      <trkpt lat="46.59055" lon="5.87017">
        <ele>812.9321289</ele>
        <time>2011-08-19T09:01:45Z</time>
      </trkpt>
      <trkpt lat="46.59068" lon="5.87033">
        <ele>805.722168</ele>
        <time>2011-08-19T09:01:50Z</time>
      </trkpt>
      <trkpt lat="46.59079" lon="5.87054">
        <ele>794.1862793</ele>
        <time>2011-08-19T09:01:56Z</time>
      </trkpt>
      <trkpt lat="46.5908" lon="5.87069">
        <ele>790.8215332</ele>
        <time>2011-08-19T09:02:00Z</time>
      </trkpt>
      <trkpt lat="46.5908" lon="5.87092">
        <ele>790.8215332</ele>
        <time>2011-08-19T09:02:05Z</time>
      </trkpt>
      <trkpt lat="46.59082" lon="5.87108">
        <ele>789.8603516</ele>
        <time>2011-08-19T09:02:09Z</time>
      </trkpt>
      <trkpt lat="46.59083" lon="5.87129">
        <ele>791.3022461</ele>
        <time>2011-08-19T09:02:14Z</time>
      </trkpt>
      <trkpt lat="46.59085" lon="5.87144">
        <ele>793.7055664</ele>
        <time>2011-08-19T09:02:18Z</time>
      </trkpt>
      <trkpt lat="46.59088" lon="5.8716">
        <ele>796.5898438</ele>
        <time>2011-08-19T09:02:23Z</time>
      </trkpt>
      <trkpt lat="46.591" lon="5.87177">
        <ele>797.0703125</ele>
        <time>2011-08-19T09:02:29Z</time>
      </trkpt>
      <trkpt lat="46.5911" lon="5.87182">
        <ele>796.5898438</ele>
        <time>2011-08-19T09:02:33Z</time>
      </trkpt>
      <trkpt lat="46.59124" lon="5.8719">
        <ele>794.666748</ele>
        <time>2011-08-19T09:02:39Z</time>
      </trkpt>
      <trkpt lat="46.59139" lon="5.87196">
        <ele>795.1474609</ele>
        <time>2011-08-19T09:02:45Z</time>
      </trkpt>
      <trkpt lat="46.59152" lon="5.872">
        <ele>796.5898438</ele>
        <time>2011-08-19T09:02:50Z</time>
      </trkpt>
      <trkpt lat="46.59168" lon="5.87204">
        <ele>799.4736328</ele>
        <time>2011-08-19T09:02:55Z</time>
      </trkpt>
      <trkpt lat="46.59182" lon="5.87211">
        <ele>797.0703125</ele>
        <time>2011-08-19T09:03:00Z</time>
      </trkpt>
      <trkpt lat="46.59194" lon="5.87217">
        <ele>796.5898438</ele>
        <time>2011-08-19T09:03:05Z</time>
      </trkpt>
      <trkpt lat="46.59206" lon="5.87227">
        <ele>796.1091309</ele>
        <time>2011-08-19T09:03:10Z</time>
      </trkpt>
      <trkpt lat="46.59215" lon="5.87234">
        <ele>795.6281738</ele>
        <time>2011-08-19T09:03:14Z</time>
      </trkpt>
      <trkpt lat="46.59227" lon="5.87245">
        <ele>793.7055664</ele>
        <time>2011-08-19T09:03:20Z</time>
      </trkpt>
      <trkpt lat="46.5924" lon="5.87253">
        <ele>793.2248535</ele>
        <time>2011-08-19T09:03:25Z</time>
      </trkpt>
      <trkpt lat="46.59249" lon="5.87259">
        <ele>792.7443848</ele>
        <time>2011-08-19T09:03:29Z</time>
      </trkpt>
      <trkpt lat="46.59259" lon="5.87265">
        <ele>794.666748</ele>
        <time>2011-08-19T09:03:33Z</time>
      </trkpt>
      <trkpt lat="46.5927" lon="5.87272">
        <ele>795.1474609</ele>
        <time>2011-08-19T09:03:37Z</time>
      </trkpt>
      <trkpt lat="46.59283" lon="5.87283">
        <ele>796.1091309</ele>
        <time>2011-08-19T09:03:43Z</time>
      </trkpt>
      <trkpt lat="46.59296" lon="5.87294">
        <ele>794.666748</ele>
        <time>2011-08-19T09:03:49Z</time>
      </trkpt>
      <trkpt lat="46.59309" lon="5.87301">
        <ele>796.1091309</ele>
        <time>2011-08-19T09:03:54Z</time>
      </trkpt>
      <trkpt lat="46.59321" lon="5.87309">
        <ele>794.666748</ele>
        <time>2011-08-19T09:03:59Z</time>
      </trkpt>
      <trkpt lat="46.59332" lon="5.87319">
        <ele>794.1862793</ele>
        <time>2011-08-19T09:04:04Z</time>
      </trkpt>
      <trkpt lat="46.59345" lon="5.87329">
        <ele>794.1862793</ele>
        <time>2011-08-19T09:04:10Z</time>
      </trkpt>
      <trkpt lat="46.59354" lon="5.87338">
        <ele>793.2248535</ele>
        <time>2011-08-19T09:04:15Z</time>
      </trkpt>
      <trkpt lat="46.59364" lon="5.87347">
        <ele>792.2636719</ele>
        <time>2011-08-19T09:04:19Z</time>
      </trkpt>
      <trkpt lat="46.59376" lon="5.87355">
        <ele>792.2636719</ele>
        <time>2011-08-19T09:04:23Z</time>
      </trkpt>
      <trkpt lat="46.59388" lon="5.87363">
        <ele>794.1862793</ele>
        <time>2011-08-19T09:04:28Z</time>
      </trkpt>
      <trkpt lat="46.59401" lon="5.87373">
        <ele>793.7055664</ele>
        <time>2011-08-19T09:04:33Z</time>
      </trkpt>
      <trkpt lat="46.5941" lon="5.87376">
        <ele>795.6281738</ele>
        <time>2011-08-19T09:04:37Z</time>
      </trkpt>
      <trkpt lat="46.59415" lon="5.87376">
        <ele>796.5898438</ele>
        <time>2011-08-19T09:04:39Z</time>
      </trkpt>
      <trkpt lat="46.59426" lon="5.87364">
        <ele>794.666748</ele>
        <time>2011-08-19T09:04:45Z</time>
      </trkpt>
      <trkpt lat="46.59428" lon="5.87351">
        <ele>794.1862793</ele>
        <time>2011-08-19T09:04:49Z</time>
      </trkpt>
      <trkpt lat="46.59432" lon="5.87325">
        <ele>797.5510254</ele>
        <time>2011-08-19T09:04:56Z</time>
      </trkpt>
      <trkpt lat="46.59437" lon="5.87302">
        <ele>799.4736328</ele>
        <time>2011-08-19T09:05:02Z</time>
      </trkpt>
      <trkpt lat="46.59445" lon="5.87282">
        <ele>801.8769531</ele>
        <time>2011-08-19T09:05:08Z</time>
      </trkpt>
      <trkpt lat="46.59453" lon="5.87271">
        <ele>802.3574219</ele>
        <time>2011-08-19T09:05:13Z</time>
      </trkpt>
      <trkpt lat="46.5946" lon="5.87261">
        <ele>801.8769531</ele>
        <time>2011-08-19T09:05:17Z</time>
      </trkpt>
      <trkpt lat="46.59469" lon="5.8725">
        <ele>801.8769531</ele>
        <time>2011-08-19T09:05:22Z</time>
      </trkpt>
      <trkpt lat="46.59475" lon="5.87242">
        <ele>801.3962402</ele>
        <time>2011-08-19T09:05:26Z</time>
      </trkpt>
      <trkpt lat="46.59483" lon="5.87233">
        <ele>801.3962402</ele>
        <time>2011-08-19T09:05:30Z</time>
      </trkpt>
      <trkpt lat="46.59491" lon="5.8722">
        <ele>800.9155273</ele>
        <time>2011-08-19T09:05:35Z</time>
      </trkpt>
      <trkpt lat="46.59501" lon="5.87206">
        <ele>801.8769531</ele>
        <time>2011-08-19T09:05:41Z</time>
      </trkpt>
      <trkpt lat="46.59511" lon="5.87196">
        <ele>801.8769531</ele>
        <time>2011-08-19T09:05:46Z</time>
      </trkpt>
      <trkpt lat="46.59523" lon="5.87184">
        <ele>802.3574219</ele>
        <time>2011-08-19T09:05:53Z</time>
      </trkpt>
      <trkpt lat="46.59531" lon="5.87179">
        <ele>803.7995605</ele>
        <time>2011-08-19T09:05:57Z</time>
      </trkpt>
      <trkpt lat="46.59542" lon="5.87174">
        <ele>803.3188477</ele>
        <time>2011-08-19T09:06:02Z</time>
      </trkpt>
      <trkpt lat="46.59551" lon="5.8717">
        <ele>802.8381348</ele>
        <time>2011-08-19T09:06:07Z</time>
      </trkpt>
      <trkpt lat="46.59561" lon="5.87166">
        <ele>803.7995605</ele>
        <time>2011-08-19T09:06:12Z</time>
      </trkpt>
      <trkpt lat="46.5957" lon="5.8716">
        <ele>805.722168</ele>
        <time>2011-08-19T09:06:17Z</time>
      </trkpt>
      <trkpt lat="46.59572" lon="5.87157">
        <ele>805.722168</ele>
        <time>2011-08-19T09:06:18Z</time>
      </trkpt>
      <trkpt lat="46.59576" lon="5.87151">
        <ele>805.2414551</ele>
        <time>2011-08-19T09:06:21Z</time>
      </trkpt>
      <trkpt lat="46.59585" lon="5.87137">
        <ele>804.7607422</ele>
        <time>2011-08-19T09:06:27Z</time>
      </trkpt>
      <trkpt lat="46.59595" lon="5.87127">
        <ele>804.7607422</ele>
        <time>2011-08-19T09:06:32Z</time>
      </trkpt>
      <trkpt lat="46.59604" lon="5.87122">
        <ele>804.7607422</ele>
        <time>2011-08-19T09:06:36Z</time>
      </trkpt>
      <trkpt lat="46.59613" lon="5.8712">
        <ele>805.2414551</ele>
        <time>2011-08-19T09:06:40Z</time>
      </trkpt>
      <trkpt lat="46.59623" lon="5.87115">
        <ele>806.6833496</ele>
        <time>2011-08-19T09:06:44Z</time>
      </trkpt>
      <trkpt lat="46.59633" lon="5.87113">
        <ele>806.6833496</ele>
        <time>2011-08-19T09:06:48Z</time>
      </trkpt>
      <trkpt lat="46.59647" lon="5.8711">
        <ele>807.1640625</ele>
        <time>2011-08-19T09:06:53Z</time>
      </trkpt>
      <trkpt lat="46.5966" lon="5.87109">
        <ele>807.6447754</ele>
        <time>2011-08-19T09:06:58Z</time>
      </trkpt>
      <trkpt lat="46.59669" lon="5.87111">
        <ele>808.605957</ele>
        <time>2011-08-19T09:07:02Z</time>
      </trkpt>
      <trkpt lat="46.59682" lon="5.87111">
        <ele>809.5673828</ele>
        <time>2011-08-19T09:07:06Z</time>
      </trkpt>
      <trkpt lat="46.59692" lon="5.87114">
        <ele>810.0478516</ele>
        <time>2011-08-19T09:07:10Z</time>
      </trkpt>
      <trkpt lat="46.59704" lon="5.87121">
        <ele>809.5673828</ele>
        <time>2011-08-19T09:07:15Z</time>
      </trkpt>
      <trkpt lat="46.59713" lon="5.87126">
        <ele>810.0478516</ele>
        <time>2011-08-19T09:07:19Z</time>
      </trkpt>
      <trkpt lat="46.59721" lon="5.87129">
        <ele>810.5285645</ele>
        <time>2011-08-19T09:07:23Z</time>
      </trkpt>
      <trkpt lat="46.5973" lon="5.8713">
        <ele>811.0092773</ele>
        <time>2011-08-19T09:07:27Z</time>
      </trkpt>
      <trkpt lat="46.59735" lon="5.87123">
        <ele>809.0866699</ele>
        <time>2011-08-19T09:07:31Z</time>
      </trkpt>
      <trkpt lat="46.59742" lon="5.87104">
        <ele>807.6447754</ele>
        <time>2011-08-19T09:07:37Z</time>
      </trkpt>
      <trkpt lat="46.59736" lon="5.87085">
        <ele>806.6833496</ele>
        <time>2011-08-19T09:07:43Z</time>
      </trkpt>
      <trkpt lat="46.59724" lon="5.87061">
        <ele>805.722168</ele>
        <time>2011-08-19T09:07:50Z</time>
      </trkpt>
      <trkpt lat="46.59719" lon="5.8705">
        <ele>805.2414551</ele>
        <time>2011-08-19T09:07:54Z</time>
      </trkpt>
      <trkpt lat="46.59712" lon="5.87039">
        <ele>805.722168</ele>
        <time>2011-08-19T09:07:58Z</time>
      </trkpt>
      <trkpt lat="46.59705" lon="5.87023">
        <ele>803.7995605</ele>
        <time>2011-08-19T09:08:03Z</time>
      </trkpt>
      <trkpt lat="46.597" lon="5.87009">
        <ele>804.2802734</ele>
        <time>2011-08-19T09:08:07Z</time>
      </trkpt>
      <trkpt lat="46.59692" lon="5.86996">
        <ele>802.3574219</ele>
        <time>2011-08-19T09:08:12Z</time>
      </trkpt>
      <trkpt lat="46.59685" lon="5.86978">
        <ele>801.3962402</ele>
        <time>2011-08-19T09:08:17Z</time>
      </trkpt>
      <trkpt lat="46.59676" lon="5.86956">
        <ele>799.9543457</ele>
        <time>2011-08-19T09:08:23Z</time>
      </trkpt>
      <trkpt lat="46.59669" lon="5.8694">
        <ele>798.0317383</ele>
        <time>2011-08-19T09:08:28Z</time>
      </trkpt>
      <trkpt lat="46.59664" lon="5.86925">
        <ele>798.9929199</ele>
        <time>2011-08-19T09:08:32Z</time>
      </trkpt>
      <trkpt lat="46.59655" lon="5.86906">
        <ele>800.9155273</ele>
        <time>2011-08-19T09:08:37Z</time>
      </trkpt>
      <trkpt lat="46.59654" lon="5.86901">
        <ele>801.3962402</ele>
        <time>2011-08-19T09:08:38Z</time>
      </trkpt>
      <trkpt lat="46.59642" lon="5.86886">
        <ele>803.7995605</ele>
        <time>2011-08-19T09:08:45Z</time>
      </trkpt>
      <trkpt lat="46.59635" lon="5.86865">
        <ele>804.2802734</ele>
        <time>2011-08-19T09:08:51Z</time>
      </trkpt>
      <trkpt lat="46.59627" lon="5.86847">
        <ele>806.6833496</ele>
        <time>2011-08-19T09:08:56Z</time>
      </trkpt>
      <trkpt lat="46.59621" lon="5.86832">
        <ele>805.2414551</ele>
        <time>2011-08-19T09:09:01Z</time>
      </trkpt>
      <trkpt lat="46.59612" lon="5.86816">
        <ele>806.6833496</ele>
        <time>2011-08-19T09:09:06Z</time>
      </trkpt>
      <trkpt lat="46.59605" lon="5.86795">
        <ele>807.6447754</ele>
        <time>2011-08-19T09:09:11Z</time>
      </trkpt>
      <trkpt lat="46.59597" lon="5.86782">
        <ele>805.722168</ele>
        <time>2011-08-19T09:09:15Z</time>
      </trkpt>
      <trkpt lat="46.5959" lon="5.86765">
        <ele>807.1640625</ele>
        <time>2011-08-19T09:09:20Z</time>
      </trkpt>
      <trkpt lat="46.59586" lon="5.86749">
        <ele>806.6833496</ele>
        <time>2011-08-19T09:09:25Z</time>
      </trkpt>
      <trkpt lat="46.59583" lon="5.86735">
        <ele>805.2414551</ele>
        <time>2011-08-19T09:09:29Z</time>
      </trkpt>
      <trkpt lat="46.59579" lon="5.8672">
        <ele>799.4736328</ele>
        <time>2011-08-19T09:09:33Z</time>
      </trkpt>
      <trkpt lat="46.59579" lon="5.86708">
        <ele>796.1091309</ele>
        <time>2011-08-19T09:09:36Z</time>
      </trkpt>
      <trkpt lat="46.59591" lon="5.86699">
        <ele>791.782959</ele>
        <time>2011-08-19T09:09:42Z</time>
      </trkpt>
      <trkpt lat="46.59605" lon="5.86706">
        <ele>789.8603516</ele>
        <time>2011-08-19T09:09:47Z</time>
      </trkpt>
      <trkpt lat="46.59622" lon="5.86686">
        <ele>788.418457</ele>
        <time>2011-08-19T09:09:54Z</time>
      </trkpt>
      <trkpt lat="46.59627" lon="5.86669">
        <ele>788.418457</ele>
        <time>2011-08-19T09:09:58Z</time>
      </trkpt>
      <trkpt lat="46.59634" lon="5.86652">
        <ele>786.9763184</ele>
        <time>2011-08-19T09:10:03Z</time>
      </trkpt>
      <trkpt lat="46.59638" lon="5.86638">
        <ele>787.4570313</ele>
        <time>2011-08-19T09:10:07Z</time>
      </trkpt>
      <trkpt lat="46.59643" lon="5.86618">
        <ele>786.4958496</ele>
        <time>2011-08-19T09:10:12Z</time>
      </trkpt>
      <trkpt lat="46.59649" lon="5.86599">
        <ele>785.0539551</ele>
        <time>2011-08-19T09:10:17Z</time>
      </trkpt>
      <trkpt lat="46.59652" lon="5.86584">
        <ele>785.0539551</ele>
        <time>2011-08-19T09:10:21Z</time>
      </trkpt>
      <trkpt lat="46.59658" lon="5.86569">
        <ele>784.0925293</ele>
        <time>2011-08-19T09:10:25Z</time>
      </trkpt>
      <trkpt lat="46.59662" lon="5.86553">
        <ele>783.6118164</ele>
        <time>2011-08-19T09:10:29Z</time>
      </trkpt>
      <trkpt lat="46.59668" lon="5.86526">
        <ele>780.2473145</ele>
        <time>2011-08-19T09:10:36Z</time>
      </trkpt>
      <trkpt lat="46.5967" lon="5.86505">
        <ele>779.2856445</ele>
        <time>2011-08-19T09:10:41Z</time>
      </trkpt>
      <trkpt lat="46.59673" lon="5.86475">
        <ele>780.2473145</ele>
        <time>2011-08-19T09:10:48Z</time>
      </trkpt>
      <trkpt lat="46.59675" lon="5.86458">
        <ele>781.689209</ele>
        <time>2011-08-19T09:10:52Z</time>
      </trkpt>
      <trkpt lat="46.59678" lon="5.86443">
        <ele>781.689209</ele>
        <time>2011-08-19T09:10:56Z</time>
      </trkpt>
      <trkpt lat="46.59686" lon="5.86423">
        <ele>781.689209</ele>
        <time>2011-08-19T09:11:02Z</time>
      </trkpt>
      <trkpt lat="46.59698" lon="5.86408">
        <ele>782.6506348</ele>
        <time>2011-08-19T09:11:08Z</time>
      </trkpt>
      <trkpt lat="46.59709" lon="5.86404">
        <ele>784.5732422</ele>
        <time>2011-08-19T09:11:13Z</time>
      </trkpt>
      <trkpt lat="46.59721" lon="5.86401">
        <ele>786.0151367</ele>
        <time>2011-08-19T09:11:18Z</time>
      </trkpt>
      <trkpt lat="46.59731" lon="5.86398">
        <ele>786.9763184</ele>
        <time>2011-08-19T09:11:22Z</time>
      </trkpt>
      <trkpt lat="46.59745" lon="5.86396">
        <ele>786.0151367</ele>
        <time>2011-08-19T09:11:27Z</time>
      </trkpt>
      <trkpt lat="46.59755" lon="5.86393">
        <ele>785.0539551</ele>
        <time>2011-08-19T09:11:31Z</time>
      </trkpt>
    </trkseg>
  </trk>
</gpx>